<?xml version="1.0" encoding="UTF-8" standalone="no" ?><gpx xmlns="http://www.topografix.com/GPX/1/1" xmlns:gpxx="http://www.garmin.com/xmlschemas/GpxExtensions/v3" xmlns:wptx1="http://www.garmin.com/xmlschemas/WaypointExtension/v1" xmlns:gpxtpx="http://www.garmin.com/xmlschemas/TrackPointExtension/v1" creator="GuideVTT.com" version="1.1" xmlns:xsi="http://www.w3.org/2001/XMLSchema-instance" xsi:schemaLocation="http://www.topografix.com/GPX/1/1 http://www.topografix.com/GPX/1/1/gpx.xsd http://www.garmin.com/xmlschemas/GpxExtensions/v3 http://www8.garmin.com/xmlschemas/GpxExtensionsv3.xsd http://www.garmin.com/xmlschemas/WaypointExtension/v1 http://www8.garmin.com/xmlschemas/WaypointExtensionv1.xsd http://www.garmin.com/xmlschemas/TrackPointExtension/v1 http://www.garmin.com/xmlschemas/TrackPointExtensionv1.xsd">
<metadata><link href="http://www.garmin.com"><text>Garmin International</text></link><time>2013-06-22T15:13:50Z</time></metadata>
<trk><name>t23431564_doerferweg-_zweisimmen.gpx</name><extensions><gpxx:TrackExtension><gpxx:DisplayColor>Cyan</gpxx:DisplayColor></gpxx:TrackExtension></extensions><trkseg>
<trkpt lat="46.553739" lon="7.37442"><ele></ele><time>2021-3-16T17:51:17Z</time></trkpt>
<trkpt lat="46.553731" lon="7.374507"><ele></ele><time>2021-3-16T17:51:20Z</time></trkpt>
<trkpt lat="46.553726" lon="7.374568"><ele></ele><time>2021-3-16T17:51:23Z</time></trkpt>
<trkpt lat="46.553717" lon="7.3747"><ele></ele><time>2021-3-16T17:51:26Z</time></trkpt>
<trkpt lat="46.553723" lon="7.3748"><ele></ele><time>2021-3-16T17:51:29Z</time></trkpt>
<trkpt lat="46.553744" lon="7.374866"><ele></ele><time>2021-3-16T17:51:32Z</time></trkpt>
<trkpt lat="46.553778" lon="7.374921"><ele></ele><time>2021-3-16T17:51:35Z</time></trkpt>
<trkpt lat="46.55383" lon="7.37496"><ele></ele><time>2021-3-16T17:51:38Z</time></trkpt>
<trkpt lat="46.553929" lon="7.37499"><ele></ele><time>2021-3-16T17:51:41Z</time></trkpt>
<trkpt lat="46.554101" lon="7.375043"><ele></ele><time>2021-3-16T17:51:44Z</time></trkpt>
<trkpt lat="46.554293" lon="7.375101"><ele></ele><time>2021-3-16T17:51:47Z</time></trkpt>
<trkpt lat="46.554444" lon="7.375145"><ele></ele><time>2021-3-16T17:51:50Z</time></trkpt>
<trkpt lat="46.554522" lon="7.375156"><ele></ele><time>2021-3-16T17:51:53Z</time></trkpt>
<trkpt lat="46.554585" lon="7.375144"><ele></ele><time>2021-3-16T17:51:56Z</time></trkpt>
<trkpt lat="46.554687" lon="7.3751"><ele></ele><time>2021-3-16T17:51:59Z</time></trkpt>
<trkpt lat="46.554704" lon="7.375092"><ele></ele><time>2021-3-16T17:52:2Z</time></trkpt>
<trkpt lat="46.554789" lon="7.375053"><ele></ele><time>2021-3-16T17:52:5Z</time></trkpt>
<trkpt lat="46.55491" lon="7.375"><ele></ele><time>2021-3-16T17:52:8Z</time></trkpt>
<trkpt lat="46.555056" lon="7.374931"><ele></ele><time>2021-3-16T17:52:11Z</time></trkpt>
<trkpt lat="46.555209" lon="7.374856"><ele></ele><time>2021-3-16T17:52:14Z</time></trkpt>
<trkpt lat="46.555261" lon="7.374981"><ele></ele><time>2021-3-16T17:52:17Z</time></trkpt>
<trkpt lat="46.555318" lon="7.375141"><ele></ele><time>2021-3-16T17:52:20Z</time></trkpt>
<trkpt lat="46.555379" lon="7.375326"><ele></ele><time>2021-3-16T17:52:23Z</time></trkpt>
<trkpt lat="46.55539" lon="7.375366"><ele></ele><time>2021-3-16T17:52:26Z</time></trkpt>
<trkpt lat="46.555308" lon="7.375376"><ele></ele><time>2021-3-16T17:52:29Z</time></trkpt>
<trkpt lat="46.555186" lon="7.37539"><ele></ele><time>2021-3-16T17:52:32Z</time></trkpt>
<trkpt lat="46.555017" lon="7.375407"><ele></ele><time>2021-3-16T17:52:35Z</time></trkpt>
<trkpt lat="46.554921" lon="7.375418"><ele></ele><time>2021-3-16T17:52:38Z</time></trkpt>
<trkpt lat="46.554879" lon="7.375429"><ele></ele><time>2021-3-16T17:52:41Z</time></trkpt>
<trkpt lat="46.554842" lon="7.375463"><ele></ele><time>2021-3-16T17:52:44Z</time></trkpt>
<trkpt lat="46.554833" lon="7.375472"><ele></ele><time>2021-3-16T17:52:47Z</time></trkpt>
<trkpt lat="46.554755" lon="7.375555"><ele></ele><time>2021-3-16T17:52:50Z</time></trkpt>
<trkpt lat="46.554729" lon="7.375601"><ele></ele><time>2021-3-16T17:52:53Z</time></trkpt>
<trkpt lat="46.554717" lon="7.375648"><ele></ele><time>2021-3-16T17:52:56Z</time></trkpt>
<trkpt lat="46.5547" lon="7.375697"><ele></ele><time>2021-3-16T17:52:59Z</time></trkpt>
<trkpt lat="46.554658" lon="7.375725"><ele></ele><time>2021-3-16T17:53:2Z</time></trkpt>
<trkpt lat="46.554502" lon="7.375728"><ele></ele><time>2021-3-16T17:53:5Z</time></trkpt>
<trkpt lat="46.554311" lon="7.375753"><ele></ele><time>2021-3-16T17:53:8Z</time></trkpt>
<trkpt lat="46.554187" lon="7.375762"><ele></ele><time>2021-3-16T17:53:11Z</time></trkpt>
<trkpt lat="46.554015" lon="7.37574"><ele></ele><time>2021-3-16T17:53:14Z</time></trkpt>
<trkpt lat="46.553836" lon="7.375723"><ele></ele><time>2021-3-16T17:53:17Z</time></trkpt>
<trkpt lat="46.553691" lon="7.37571"><ele></ele><time>2021-3-16T17:53:20Z</time></trkpt>
<trkpt lat="46.553622" lon="7.37571"><ele></ele><time>2021-3-16T17:53:23Z</time></trkpt>
<trkpt lat="46.553519" lon="7.375732"><ele></ele><time>2021-3-16T17:53:26Z</time></trkpt>
<trkpt lat="46.553529" lon="7.375917"><ele></ele><time>2021-3-16T17:53:29Z</time></trkpt>
<trkpt lat="46.553535" lon="7.376108"><ele></ele><time>2021-3-16T17:53:32Z</time></trkpt>
<trkpt lat="46.553544" lon="7.376197"><ele></ele><time>2021-3-16T17:53:35Z</time></trkpt>
<trkpt lat="46.55356" lon="7.376338"><ele></ele><time>2021-3-16T17:53:38Z</time></trkpt>
<trkpt lat="46.55359" lon="7.376451"><ele></ele><time>2021-3-16T17:53:41Z</time></trkpt>
<trkpt lat="46.553651" lon="7.376589"><ele></ele><time>2021-3-16T17:53:44Z</time></trkpt>
<trkpt lat="46.553735" lon="7.376747"><ele></ele><time>2021-3-16T17:53:47Z</time></trkpt>
<trkpt lat="46.553875" lon="7.376987"><ele></ele><time>2021-3-16T17:53:50Z</time></trkpt>
<trkpt lat="46.554008" lon="7.377203"><ele></ele><time>2021-3-16T17:53:53Z</time></trkpt>
<trkpt lat="46.554136" lon="7.37741"><ele></ele><time>2021-3-16T17:53:56Z</time></trkpt>
<trkpt lat="46.554236" lon="7.377562"><ele></ele><time>2021-3-16T17:53:59Z</time></trkpt>
<trkpt lat="46.554287" lon="7.377678"><ele></ele><time>2021-3-16T17:54:2Z</time></trkpt>
<trkpt lat="46.554343" lon="7.377847"><ele></ele><time>2021-3-16T17:54:5Z</time></trkpt>
<trkpt lat="46.55444" lon="7.378134"><ele></ele><time>2021-3-16T17:54:8Z</time></trkpt>
<trkpt lat="46.55452" lon="7.378413"><ele></ele><time>2021-3-16T17:54:11Z</time></trkpt>
<trkpt lat="46.554625" lon="7.378739"><ele></ele><time>2021-3-16T17:54:14Z</time></trkpt>
<trkpt lat="46.554681" lon="7.37893"><ele></ele><time>2021-3-16T17:54:17Z</time></trkpt>
<trkpt lat="46.554719" lon="7.379099"><ele></ele><time>2021-3-16T17:54:20Z</time></trkpt>
<trkpt lat="46.554738" lon="7.379279"><ele></ele><time>2021-3-16T17:54:23Z</time></trkpt>
<trkpt lat="46.554759" lon="7.379608"><ele></ele><time>2021-3-16T17:54:26Z</time></trkpt>
<trkpt lat="46.554784" lon="7.38"><ele></ele><time>2021-3-16T17:54:29Z</time></trkpt>
<trkpt lat="46.554809" lon="7.380371"><ele></ele><time>2021-3-16T17:54:32Z</time></trkpt>
<trkpt lat="46.554836" lon="7.380816"><ele></ele><time>2021-3-16T17:54:35Z</time></trkpt>
<trkpt lat="46.554854" lon="7.381203"><ele></ele><time>2021-3-16T17:54:38Z</time></trkpt>
<trkpt lat="46.554869" lon="7.381491"><ele></ele><time>2021-3-16T17:54:41Z</time></trkpt>
<trkpt lat="46.554871" lon="7.38151"><ele></ele><time>2021-3-16T17:54:44Z</time></trkpt>
<trkpt lat="46.554884" lon="7.381723"><ele></ele><time>2021-3-16T17:54:47Z</time></trkpt>
<trkpt lat="46.554886" lon="7.381752"><ele></ele><time>2021-3-16T17:54:50Z</time></trkpt>
<trkpt lat="46.555007" lon="7.381715"><ele></ele><time>2021-3-16T17:54:53Z</time></trkpt>
<trkpt lat="46.555125" lon="7.381679"><ele></ele><time>2021-3-16T17:54:56Z</time></trkpt>
<trkpt lat="46.55539" lon="7.381616"><ele></ele><time>2021-3-16T17:54:59Z</time></trkpt>
<trkpt lat="46.555563" lon="7.381569"><ele></ele><time>2021-3-16T17:55:2Z</time></trkpt>
<trkpt lat="46.555563" lon="7.381569"><ele></ele><time>2021-3-16T17:55:5Z</time></trkpt>
<trkpt lat="46.555567" lon="7.381568"><ele></ele><time>2021-3-16T17:55:8Z</time></trkpt>
<trkpt lat="46.555728" lon="7.381535"><ele></ele><time>2021-3-16T17:55:11Z</time></trkpt>
<trkpt lat="46.555871" lon="7.381488"><ele></ele><time>2021-3-16T17:55:14Z</time></trkpt>
<trkpt lat="46.55604" lon="7.381438"><ele></ele><time>2021-3-16T17:55:17Z</time></trkpt>
<trkpt lat="46.556235" lon="7.381399"><ele></ele><time>2021-3-16T17:55:20Z</time></trkpt>
<trkpt lat="46.556443" lon="7.381371"><ele></ele><time>2021-3-16T17:55:23Z</time></trkpt>
<trkpt lat="46.556632" lon="7.381357"><ele></ele><time>2021-3-16T17:55:26Z</time></trkpt>
<trkpt lat="46.556784" lon="7.381365"><ele></ele><time>2021-3-16T17:55:29Z</time></trkpt>
<trkpt lat="46.556931" lon="7.38139"><ele></ele><time>2021-3-16T17:55:32Z</time></trkpt>
<trkpt lat="46.557223" lon="7.381453"><ele></ele><time>2021-3-16T17:55:35Z</time></trkpt>
<trkpt lat="46.557382" lon="7.381478"><ele></ele><time>2021-3-16T17:55:38Z</time></trkpt>
<trkpt lat="46.557513" lon="7.381486"><ele></ele><time>2021-3-16T17:55:41Z</time></trkpt>
<trkpt lat="46.5577" lon="7.381431"><ele></ele><time>2021-3-16T17:55:44Z</time></trkpt>
<trkpt lat="46.557862" lon="7.381367"><ele></ele><time>2021-3-16T17:55:47Z</time></trkpt>
<trkpt lat="46.558004" lon="7.381297"><ele></ele><time>2021-3-16T17:55:50Z</time></trkpt>
<trkpt lat="46.558204" lon="7.38117"><ele></ele><time>2021-3-16T17:55:53Z</time></trkpt>
<trkpt lat="46.558372" lon="7.38104"><ele></ele><time>2021-3-16T17:55:56Z</time></trkpt>
<trkpt lat="46.558528" lon="7.380893"><ele></ele><time>2021-3-16T17:55:59Z</time></trkpt>
<trkpt lat="46.558711" lon="7.380724"><ele></ele><time>2021-3-16T17:56:2Z</time></trkpt>
<trkpt lat="46.558799" lon="7.380655"><ele></ele><time>2021-3-16T17:56:5Z</time></trkpt>
<trkpt lat="46.55889" lon="7.380616"><ele></ele><time>2021-3-16T17:56:8Z</time></trkpt>
<trkpt lat="46.558989" lon="7.380597"><ele></ele><time>2021-3-16T17:56:11Z</time></trkpt>
<trkpt lat="46.559129" lon="7.380558"><ele></ele><time>2021-3-16T17:56:14Z</time></trkpt>
<trkpt lat="46.559304" lon="7.380491"><ele></ele><time>2021-3-16T17:56:17Z</time></trkpt>
<trkpt lat="46.559527" lon="7.380394"><ele></ele><time>2021-3-16T17:56:20Z</time></trkpt>
<trkpt lat="46.559743" lon="7.380294"><ele></ele><time>2021-3-16T17:56:23Z</time></trkpt>
<trkpt lat="46.559945" lon="7.380192"><ele></ele><time>2021-3-16T17:56:26Z</time></trkpt>
<trkpt lat="46.560138" lon="7.380081"><ele></ele><time>2021-3-16T17:56:29Z</time></trkpt>
<trkpt lat="46.560304" lon="7.380001"><ele></ele><time>2021-3-16T17:56:32Z</time></trkpt>
<trkpt lat="46.560472" lon="7.379945"><ele></ele><time>2021-3-16T17:56:35Z</time></trkpt>
<trkpt lat="46.560613" lon="7.379912"><ele></ele><time>2021-3-16T17:56:38Z</time></trkpt>
<trkpt lat="46.560746" lon="7.379862"><ele></ele><time>2021-3-16T17:56:41Z</time></trkpt>
<trkpt lat="46.560906" lon="7.379795"><ele></ele><time>2021-3-16T17:56:44Z</time></trkpt>
<trkpt lat="46.561019" lon="7.379751"><ele></ele><time>2021-3-16T17:56:47Z</time></trkpt>
<trkpt lat="46.561128" lon="7.379718"><ele></ele><time>2021-3-16T17:56:50Z</time></trkpt>
<trkpt lat="46.561246" lon="7.37969"><ele></ele><time>2021-3-16T17:56:53Z</time></trkpt>
<trkpt lat="46.561336" lon="7.379665"><ele></ele><time>2021-3-16T17:56:56Z</time></trkpt>
<trkpt lat="46.561452" lon="7.379612"><ele></ele><time>2021-3-16T17:56:59Z</time></trkpt>
<trkpt lat="46.561706" lon="7.379496"><ele></ele><time>2021-3-16T17:57:2Z</time></trkpt>
<trkpt lat="46.561883" lon="7.379415"><ele></ele><time>2021-3-16T17:57:5Z</time></trkpt>
<trkpt lat="46.562024" lon="7.379354"><ele></ele><time>2021-3-16T17:57:8Z</time></trkpt>
<trkpt lat="46.562158" lon="7.379302"><ele></ele><time>2021-3-16T17:57:11Z</time></trkpt>
<trkpt lat="46.562308" lon="7.379241"><ele></ele><time>2021-3-16T17:57:14Z</time></trkpt>
<trkpt lat="46.562486" lon="7.379163"><ele></ele><time>2021-3-16T17:57:17Z</time></trkpt>
<trkpt lat="46.562621" lon="7.37911"><ele></ele><time>2021-3-16T17:57:20Z</time></trkpt>
<trkpt lat="46.562774" lon="7.379035"><ele></ele><time>2021-3-16T17:57:23Z</time></trkpt>
<trkpt lat="46.562869" lon="7.379002"><ele></ele><time>2021-3-16T17:57:26Z</time></trkpt>
<trkpt lat="46.562947" lon="7.378974"><ele></ele><time>2021-3-16T17:57:29Z</time></trkpt>
<trkpt lat="46.562934" lon="7.378909"><ele></ele><time>2021-3-16T17:57:32Z</time></trkpt>
<trkpt lat="46.562883" lon="7.378656"><ele></ele><time>2021-3-16T17:57:35Z</time></trkpt>
<trkpt lat="46.562875" lon="7.378612"><ele></ele><time>2021-3-16T17:57:38Z</time></trkpt>
<trkpt lat="46.563" lon="7.378548"><ele></ele><time>2021-3-16T17:57:41Z</time></trkpt>
<trkpt lat="46.563262" lon="7.378432"><ele></ele><time>2021-3-16T17:57:44Z</time></trkpt>
<trkpt lat="46.563483" lon="7.378329"><ele></ele><time>2021-3-16T17:57:47Z</time></trkpt>
<trkpt lat="46.563681" lon="7.378246"><ele></ele><time>2021-3-16T17:57:50Z</time></trkpt>
<trkpt lat="46.563885" lon="7.37816"><ele></ele><time>2021-3-16T17:57:53Z</time></trkpt>
<trkpt lat="46.564092" lon="7.378069"><ele></ele><time>2021-3-16T17:57:56Z</time></trkpt>
<trkpt lat="46.56441" lon="7.377933"><ele></ele><time>2021-3-16T17:57:59Z</time></trkpt>
<trkpt lat="46.564746" lon="7.377786"><ele></ele><time>2021-3-16T17:58:2Z</time></trkpt>
<trkpt lat="46.564967" lon="7.377694"><ele></ele><time>2021-3-16T17:58:5Z</time></trkpt>
<trkpt lat="46.565047" lon="7.377653"><ele></ele><time>2021-3-16T17:58:8Z</time></trkpt>
<trkpt lat="46.565188" lon="7.377597"><ele></ele><time>2021-3-16T17:58:11Z</time></trkpt>
<trkpt lat="46.565415" lon="7.377503"><ele></ele><time>2021-3-16T17:58:14Z</time></trkpt>
<trkpt lat="46.565636" lon="7.377409"><ele></ele><time>2021-3-16T17:58:17Z</time></trkpt>
<trkpt lat="46.565867" lon="7.3773"><ele></ele><time>2021-3-16T17:58:20Z</time></trkpt>
<trkpt lat="46.566039" lon="7.377226"><ele></ele><time>2021-3-16T17:58:23Z</time></trkpt>
<trkpt lat="46.566176" lon="7.377173"><ele></ele><time>2021-3-16T17:58:26Z</time></trkpt>
<trkpt lat="46.566359" lon="7.377112"><ele></ele><time>2021-3-16T17:58:29Z</time></trkpt>
<trkpt lat="46.566548" lon="7.377059"><ele></ele><time>2021-3-16T17:58:32Z</time></trkpt>
<trkpt lat="46.56672" lon="7.377023"><ele></ele><time>2021-3-16T17:58:35Z</time></trkpt>
<trkpt lat="46.566916" lon="7.377006"><ele></ele><time>2021-3-16T17:58:38Z</time></trkpt>
<trkpt lat="46.567069" lon="7.377003"><ele></ele><time>2021-3-16T17:58:41Z</time></trkpt>
<trkpt lat="46.567225" lon="7.377025"><ele></ele><time>2021-3-16T17:58:44Z</time></trkpt>
<trkpt lat="46.56738" lon="7.37705"><ele></ele><time>2021-3-16T17:58:47Z</time></trkpt>
<trkpt lat="46.567535" lon="7.377086"><ele></ele><time>2021-3-16T17:58:50Z</time></trkpt>
<trkpt lat="46.56768" lon="7.377124"><ele></ele><time>2021-3-16T17:58:53Z</time></trkpt>
<trkpt lat="46.567748" lon="7.377152"><ele></ele><time>2021-3-16T17:58:56Z</time></trkpt>
<trkpt lat="46.567893" lon="7.377201"><ele></ele><time>2021-3-16T17:58:59Z</time></trkpt>
<trkpt lat="46.568055" lon="7.377259"><ele></ele><time>2021-3-16T17:59:2Z</time></trkpt>
<trkpt lat="46.568204" lon="7.377325"><ele></ele><time>2021-3-16T17:59:5Z</time></trkpt>
<trkpt lat="46.568359" lon="7.377394"><ele></ele><time>2021-3-16T17:59:8Z</time></trkpt>
<trkpt lat="46.568542" lon="7.377477"><ele></ele><time>2021-3-16T17:59:11Z</time></trkpt>
<trkpt lat="46.568735" lon="7.377557"><ele></ele><time>2021-3-16T17:59:14Z</time></trkpt>
<trkpt lat="46.568954" lon="7.377659"><ele></ele><time>2021-3-16T17:59:17Z</time></trkpt>
<trkpt lat="46.569151" lon="7.37775"><ele></ele><time>2021-3-16T17:59:20Z</time></trkpt>
<trkpt lat="46.569359" lon="7.377841"><ele></ele><time>2021-3-16T17:59:23Z</time></trkpt>
<trkpt lat="46.569572" lon="7.377935"><ele></ele><time>2021-3-16T17:59:26Z</time></trkpt>
<trkpt lat="46.569796" lon="7.378034"><ele></ele><time>2021-3-16T17:59:29Z</time></trkpt>
<trkpt lat="46.570002" lon="7.378128"><ele></ele><time>2021-3-16T17:59:32Z</time></trkpt>
<trkpt lat="46.570172" lon="7.378214"><ele></ele><time>2021-3-16T17:59:35Z</time></trkpt>
<trkpt lat="46.57033" lon="7.378288"><ele></ele><time>2021-3-16T17:59:38Z</time></trkpt>
<trkpt lat="46.570502" lon="7.378363"><ele></ele><time>2021-3-16T17:59:41Z</time></trkpt>
<trkpt lat="46.570683" lon="7.378446"><ele></ele><time>2021-3-16T17:59:44Z</time></trkpt>
<trkpt lat="46.570851" lon="7.378515"><ele></ele><time>2021-3-16T17:59:47Z</time></trkpt>
<trkpt lat="46.571021" lon="7.378592"><ele></ele><time>2021-3-16T17:59:50Z</time></trkpt>
<trkpt lat="46.571164" lon="7.378666"><ele></ele><time>2021-3-16T17:59:53Z</time></trkpt>
<trkpt lat="46.571271" lon="7.378733"><ele></ele><time>2021-3-16T17:59:56Z</time></trkpt>
<trkpt lat="46.571429" lon="7.37884"><ele></ele><time>2021-3-16T17:59:59Z</time></trkpt>
<trkpt lat="46.571565" lon="7.378931"><ele></ele><time>2021-3-16T18:0:2Z</time></trkpt>
<trkpt lat="46.571734" lon="7.379078"><ele></ele><time>2021-3-16T18:0:5Z</time></trkpt>
<trkpt lat="46.571849" lon="7.379183"><ele></ele><time>2021-3-16T18:0:8Z</time></trkpt>
<trkpt lat="46.571967" lon="7.379307"><ele></ele><time>2021-3-16T18:0:11Z</time></trkpt>
<trkpt lat="46.572088" lon="7.379426"><ele></ele><time>2021-3-16T18:0:14Z</time></trkpt>
<trkpt lat="46.572183" lon="7.379539"><ele></ele><time>2021-3-16T18:0:17Z</time></trkpt>
<trkpt lat="46.57228" lon="7.379672"><ele></ele><time>2021-3-16T18:0:20Z</time></trkpt>
<trkpt lat="46.572387" lon="7.379824"><ele></ele><time>2021-3-16T18:0:23Z</time></trkpt>
<trkpt lat="46.5725" lon="7.379995"><ele></ele><time>2021-3-16T18:0:26Z</time></trkpt>
<trkpt lat="46.572634" lon="7.380205"><ele></ele><time>2021-3-16T18:0:29Z</time></trkpt>
<trkpt lat="46.5728" lon="7.380482"><ele></ele><time>2021-3-16T18:0:32Z</time></trkpt>
<trkpt lat="46.57293" lon="7.380695"><ele></ele><time>2021-3-16T18:0:35Z</time></trkpt>
<trkpt lat="46.573056" lon="7.380866"><ele></ele><time>2021-3-16T18:0:38Z</time></trkpt>
<trkpt lat="46.573166" lon="7.381024"><ele></ele><time>2021-3-16T18:0:41Z</time></trkpt>
<trkpt lat="46.573218" lon="7.38109"><ele></ele><time>2021-3-16T18:0:44Z</time></trkpt>
<trkpt lat="46.573277" lon="7.381179"><ele></ele><time>2021-3-16T18:0:47Z</time></trkpt>
<trkpt lat="46.573367" lon="7.381286"><ele></ele><time>2021-3-16T18:0:50Z</time></trkpt>
<trkpt lat="46.573506" lon="7.381455"><ele></ele><time>2021-3-16T18:0:53Z</time></trkpt>
<trkpt lat="46.573594" lon="7.381541"><ele></ele><time>2021-3-16T18:0:56Z</time></trkpt>
<trkpt lat="46.573695" lon="7.381657"><ele></ele><time>2021-3-16T18:0:59Z</time></trkpt>
<trkpt lat="46.573813" lon="7.381792"><ele></ele><time>2021-3-16T18:1:2Z</time></trkpt>
<trkpt lat="46.573938" lon="7.381933"><ele></ele><time>2021-3-16T18:1:5Z</time></trkpt>
<trkpt lat="46.574018" lon="7.382035"><ele></ele><time>2021-3-16T18:1:8Z</time></trkpt>
<trkpt lat="46.574058" lon="7.382115"><ele></ele><time>2021-3-16T18:1:11Z</time></trkpt>
<trkpt lat="46.574096" lon="7.382218"><ele></ele><time>2021-3-16T18:1:14Z</time></trkpt>
<trkpt lat="46.574136" lon="7.382268"><ele></ele><time>2021-3-16T18:1:17Z</time></trkpt>
<trkpt lat="46.574166" lon="7.382282"><ele></ele><time>2021-3-16T18:1:20Z</time></trkpt>
<trkpt lat="46.574201" lon="7.382298"><ele></ele><time>2021-3-16T18:1:23Z</time></trkpt>
<trkpt lat="46.574264" lon="7.382345"><ele></ele><time>2021-3-16T18:1:26Z</time></trkpt>
<trkpt lat="46.57435" lon="7.382431"><ele></ele><time>2021-3-16T18:1:29Z</time></trkpt>
<trkpt lat="46.574428" lon="7.382527"><ele></ele><time>2021-3-16T18:1:32Z</time></trkpt>
<trkpt lat="46.574512" lon="7.382646"><ele></ele><time>2021-3-16T18:1:35Z</time></trkpt>
<trkpt lat="46.574633" lon="7.382837"><ele></ele><time>2021-3-16T18:1:38Z</time></trkpt>
<trkpt lat="46.574708" lon="7.382892"><ele></ele><time>2021-3-16T18:1:41Z</time></trkpt>
<trkpt lat="46.574856" lon="7.382991"><ele></ele><time>2021-3-16T18:1:44Z</time></trkpt>
<trkpt lat="46.574856" lon="7.38299"><ele></ele><time>2021-3-16T18:1:47Z</time></trkpt>
<trkpt lat="46.57489" lon="7.383013"><ele></ele><time>2021-3-16T18:1:50Z</time></trkpt>
<trkpt lat="46.575013" lon="7.38308"><ele></ele><time>2021-3-16T18:1:53Z</time></trkpt>
<trkpt lat="46.575195" lon="7.383157"><ele></ele><time>2021-3-16T18:1:56Z</time></trkpt>
<trkpt lat="46.575233" lon="7.383174"><ele></ele><time>2021-3-16T18:1:59Z</time></trkpt>
<trkpt lat="46.575321" lon="7.383201"><ele></ele><time>2021-3-16T18:2:2Z</time></trkpt>
<trkpt lat="46.575491" lon="7.383247"><ele></ele><time>2021-3-16T18:2:5Z</time></trkpt>
<trkpt lat="46.575606" lon="7.383268"><ele></ele><time>2021-3-16T18:2:8Z</time></trkpt>
<trkpt lat="46.575663" lon="7.383281"><ele></ele><time>2021-3-16T18:2:11Z</time></trkpt>
<trkpt lat="46.575733" lon="7.383305"><ele></ele><time>2021-3-16T18:2:14Z</time></trkpt>
<trkpt lat="46.575808" lon="7.383338"><ele></ele><time>2021-3-16T18:2:17Z</time></trkpt>
<trkpt lat="46.575856" lon="7.383366"><ele></ele><time>2021-3-16T18:2:20Z</time></trkpt>
<trkpt lat="46.575868" lon="7.383444"><ele></ele><time>2021-3-16T18:2:23Z</time></trkpt>
<trkpt lat="46.575871" lon="7.383657"><ele></ele><time>2021-3-16T18:2:26Z</time></trkpt>
<trkpt lat="46.57587" lon="7.383797"><ele></ele><time>2021-3-16T18:2:29Z</time></trkpt>
<trkpt lat="46.575883" lon="7.383877"><ele></ele><time>2021-3-16T18:2:32Z</time></trkpt>
<trkpt lat="46.575916" lon="7.383942"><ele></ele><time>2021-3-16T18:2:35Z</time></trkpt>
<trkpt lat="46.575978" lon="7.384"><ele></ele><time>2021-3-16T18:2:38Z</time></trkpt>
<trkpt lat="46.576261" lon="7.384223"><ele></ele><time>2021-3-16T18:2:41Z</time></trkpt>
<trkpt lat="46.576418" lon="7.384335"><ele></ele><time>2021-3-16T18:2:44Z</time></trkpt>
<trkpt lat="46.576536" lon="7.384408"><ele></ele><time>2021-3-16T18:2:47Z</time></trkpt>
<trkpt lat="46.576625" lon="7.384446"><ele></ele><time>2021-3-16T18:2:50Z</time></trkpt>
<trkpt lat="46.576706" lon="7.384475"><ele></ele><time>2021-3-16T18:2:53Z</time></trkpt>
<trkpt lat="46.57677" lon="7.38448"><ele></ele><time>2021-3-16T18:2:56Z</time></trkpt>
<trkpt lat="46.576846" lon="7.38448"><ele></ele><time>2021-3-16T18:2:59Z</time></trkpt>
<trkpt lat="46.576923" lon="7.384465"><ele></ele><time>2021-3-16T18:3:2Z</time></trkpt>
<trkpt lat="46.577013" lon="7.384436"><ele></ele><time>2021-3-16T18:3:5Z</time></trkpt>
<trkpt lat="46.57722" lon="7.384349"><ele></ele><time>2021-3-16T18:3:8Z</time></trkpt>
<trkpt lat="46.577379" lon="7.384286"><ele></ele><time>2021-3-16T18:3:11Z</time></trkpt>
<trkpt lat="46.577598" lon="7.384211"><ele></ele><time>2021-3-16T18:3:14Z</time></trkpt>
<trkpt lat="46.577808" lon="7.384145"><ele></ele><time>2021-3-16T18:3:17Z</time></trkpt>
<trkpt lat="46.578039" lon="7.384082"><ele></ele><time>2021-3-16T18:3:20Z</time></trkpt>
<trkpt lat="46.578274" lon="7.384022"><ele></ele><time>2021-3-16T18:3:23Z</time></trkpt>
<trkpt lat="46.578575" lon="7.383934"><ele></ele><time>2021-3-16T18:3:26Z</time></trkpt>
<trkpt lat="46.5788" lon="7.383866"><ele></ele><time>2021-3-16T18:3:29Z</time></trkpt>
<trkpt lat="46.578895" lon="7.383842"><ele></ele><time>2021-3-16T18:3:32Z</time></trkpt>
<trkpt lat="46.579009" lon="7.383818"><ele></ele><time>2021-3-16T18:3:35Z</time></trkpt>
<trkpt lat="46.57914" lon="7.383786"><ele></ele><time>2021-3-16T18:3:38Z</time></trkpt>
<trkpt lat="46.57945" lon="7.383713"><ele></ele><time>2021-3-16T18:3:41Z</time></trkpt>
<trkpt lat="46.579793" lon="7.38363"><ele></ele><time>2021-3-16T18:3:44Z</time></trkpt>
<trkpt lat="46.579817" lon="7.383862"><ele></ele><time>2021-3-16T18:3:47Z</time></trkpt>
<trkpt lat="46.579823" lon="7.383922"><ele></ele><time>2021-3-16T18:3:50Z</time></trkpt>
<trkpt lat="46.579917" lon="7.383876"><ele></ele><time>2021-3-16T18:3:53Z</time></trkpt>
<trkpt lat="46.580349" lon="7.383783"><ele></ele><time>2021-3-16T18:3:56Z</time></trkpt>
<trkpt lat="46.580436" lon="7.38376"><ele></ele><time>2021-3-16T18:3:59Z</time></trkpt>
<trkpt lat="46.580489" lon="7.383747"><ele></ele><time>2021-3-16T18:4:2Z</time></trkpt>
<trkpt lat="46.58087" lon="7.383638"><ele></ele><time>2021-3-16T18:4:5Z</time></trkpt>
<trkpt lat="46.581244" lon="7.383536"><ele></ele><time>2021-3-16T18:4:8Z</time></trkpt>
<trkpt lat="46.581446" lon="7.38348"><ele></ele><time>2021-3-16T18:4:11Z</time></trkpt>
<trkpt lat="46.581573" lon="7.383451"><ele></ele><time>2021-3-16T18:4:14Z</time></trkpt>
<trkpt lat="46.581871" lon="7.383391"><ele></ele><time>2021-3-16T18:4:17Z</time></trkpt>
<trkpt lat="46.581966" lon="7.383381"><ele></ele><time>2021-3-16T18:4:20Z</time></trkpt>
<trkpt lat="46.582019" lon="7.383388"><ele></ele><time>2021-3-16T18:4:23Z</time></trkpt>
<trkpt lat="46.582072" lon="7.383415"><ele></ele><time>2021-3-16T18:4:26Z</time></trkpt>
<trkpt lat="46.582126" lon="7.383468"><ele></ele><time>2021-3-16T18:4:29Z</time></trkpt>
<trkpt lat="46.582191" lon="7.383533"><ele></ele><time>2021-3-16T18:4:32Z</time></trkpt>
<trkpt lat="46.582258" lon="7.383587"><ele></ele><time>2021-3-16T18:4:35Z</time></trkpt>
<trkpt lat="46.582257" lon="7.38359"><ele></ele><time>2021-3-16T18:4:38Z</time></trkpt>
<trkpt lat="46.582257" lon="7.38359"><ele></ele><time>2021-3-16T18:4:41Z</time></trkpt>
<trkpt lat="46.582133" lon="7.383987"><ele></ele><time>2021-3-16T18:4:44Z</time></trkpt>
<trkpt lat="46.582017" lon="7.384335"><ele></ele><time>2021-3-16T18:4:47Z</time></trkpt>
<trkpt lat="46.581855" lon="7.384849"><ele></ele><time>2021-3-16T18:4:50Z</time></trkpt>
<trkpt lat="46.581669" lon="7.385396"><ele></ele><time>2021-3-16T18:4:53Z</time></trkpt>
<trkpt lat="46.581634" lon="7.385501"><ele></ele><time>2021-3-16T18:4:56Z</time></trkpt>
<trkpt lat="46.58157" lon="7.385645"><ele></ele><time>2021-3-16T18:4:59Z</time></trkpt>
<trkpt lat="46.581492" lon="7.385802"><ele></ele><time>2021-3-16T18:5:2Z</time></trkpt>
<trkpt lat="46.58129" lon="7.386156"><ele></ele><time>2021-3-16T18:5:5Z</time></trkpt>
<trkpt lat="46.581014" lon="7.386629"><ele></ele><time>2021-3-16T18:5:8Z</time></trkpt>
<trkpt lat="46.580799" lon="7.386993"><ele></ele><time>2021-3-16T18:5:11Z</time></trkpt>
<trkpt lat="46.580702" lon="7.387159"><ele></ele><time>2021-3-16T18:5:14Z</time></trkpt>
<trkpt lat="46.58063" lon="7.38727"><ele></ele><time>2021-3-16T18:5:17Z</time></trkpt>
<trkpt lat="46.580552" lon="7.387369"><ele></ele><time>2021-3-16T18:5:20Z</time></trkpt>
<trkpt lat="46.580424" lon="7.387524"><ele></ele><time>2021-3-16T18:5:23Z</time></trkpt>
<trkpt lat="46.580263" lon="7.387714"><ele></ele><time>2021-3-16T18:5:26Z</time></trkpt>
<trkpt lat="46.580196" lon="7.387806"><ele></ele><time>2021-3-16T18:5:29Z</time></trkpt>
<trkpt lat="46.58015" lon="7.387875"><ele></ele><time>2021-3-16T18:5:32Z</time></trkpt>
<trkpt lat="46.580105" lon="7.38796"><ele></ele><time>2021-3-16T18:5:35Z</time></trkpt>
<trkpt lat="46.580074" lon="7.388021"><ele></ele><time>2021-3-16T18:5:38Z</time></trkpt>
<trkpt lat="46.580015" lon="7.388215"><ele></ele><time>2021-3-16T18:5:41Z</time></trkpt>
<trkpt lat="46.579908" lon="7.388225"><ele></ele><time>2021-3-16T18:5:44Z</time></trkpt>
<trkpt lat="46.579792" lon="7.388263"><ele></ele><time>2021-3-16T18:5:47Z</time></trkpt>
<trkpt lat="46.579746" lon="7.388261"><ele></ele><time>2021-3-16T18:5:50Z</time></trkpt>
<trkpt lat="46.579695" lon="7.388217"><ele></ele><time>2021-3-16T18:5:53Z</time></trkpt>
<trkpt lat="46.579632" lon="7.388184"><ele></ele><time>2021-3-16T18:5:56Z</time></trkpt>
<trkpt lat="46.579545" lon="7.38817"><ele></ele><time>2021-3-16T18:5:59Z</time></trkpt>
<trkpt lat="46.579436" lon="7.388156"><ele></ele><time>2021-3-16T18:6:2Z</time></trkpt>
<trkpt lat="46.579348" lon="7.388137"><ele></ele><time>2021-3-16T18:6:5Z</time></trkpt>
<trkpt lat="46.579209" lon="7.388076"><ele></ele><time>2021-3-16T18:6:8Z</time></trkpt>
<trkpt lat="46.579108" lon="7.388035"><ele></ele><time>2021-3-16T18:6:11Z</time></trkpt>
<trkpt lat="46.579019" lon="7.388007"><ele></ele><time>2021-3-16T18:6:14Z</time></trkpt>
<trkpt lat="46.578954" lon="7.387988"><ele></ele><time>2021-3-16T18:6:17Z</time></trkpt>
<trkpt lat="46.578893" lon="7.387988"><ele></ele><time>2021-3-16T18:6:20Z</time></trkpt>
<trkpt lat="46.578844" lon="7.388005"><ele></ele><time>2021-3-16T18:6:23Z</time></trkpt>
<trkpt lat="46.578764" lon="7.388032"><ele></ele><time>2021-3-16T18:6:26Z</time></trkpt>
<trkpt lat="46.578688" lon="7.388055"><ele></ele><time>2021-3-16T18:6:29Z</time></trkpt>
<trkpt lat="46.578615" lon="7.388069"><ele></ele><time>2021-3-16T18:6:32Z</time></trkpt>
<trkpt lat="46.578522" lon="7.388074"><ele></ele><time>2021-3-16T18:6:35Z</time></trkpt>
<trkpt lat="46.578452" lon="7.388085"><ele></ele><time>2021-3-16T18:6:38Z</time></trkpt>
<trkpt lat="46.578373" lon="7.38811"><ele></ele><time>2021-3-16T18:6:41Z</time></trkpt>
<trkpt lat="46.578295" lon="7.388152"><ele></ele><time>2021-3-16T18:6:44Z</time></trkpt>
<trkpt lat="46.578128" lon="7.388268"><ele></ele><time>2021-3-16T18:6:47Z</time></trkpt>
<trkpt lat="46.578075" lon="7.388283"><ele></ele><time>2021-3-16T18:6:50Z</time></trkpt>
<trkpt lat="46.577991" lon="7.388324"><ele></ele><time>2021-3-16T18:6:53Z</time></trkpt>
<trkpt lat="46.577899" lon="7.388383"><ele></ele><time>2021-3-16T18:6:56Z</time></trkpt>
<trkpt lat="46.57783" lon="7.388424"><ele></ele><time>2021-3-16T18:6:59Z</time></trkpt>
<trkpt lat="46.577763" lon="7.38845"><ele></ele><time>2021-3-16T18:7:2Z</time></trkpt>
<trkpt lat="46.577717" lon="7.388468"><ele></ele><time>2021-3-16T18:7:5Z</time></trkpt>
<trkpt lat="46.57762" lon="7.388499"><ele></ele><time>2021-3-16T18:7:8Z</time></trkpt>
<trkpt lat="46.577523" lon="7.388518"><ele></ele><time>2021-3-16T18:7:11Z</time></trkpt>
<trkpt lat="46.577359" lon="7.388535"><ele></ele><time>2021-3-16T18:7:14Z</time></trkpt>
<trkpt lat="46.577062" lon="7.388529"><ele></ele><time>2021-3-16T18:7:17Z</time></trkpt>
<trkpt lat="46.576969" lon="7.388518"><ele></ele><time>2021-3-16T18:7:20Z</time></trkpt>
<trkpt lat="46.576879" lon="7.388494"><ele></ele><time>2021-3-16T18:7:23Z</time></trkpt>
<trkpt lat="46.576756" lon="7.388433"><ele></ele><time>2021-3-16T18:7:26Z</time></trkpt>
<trkpt lat="46.576603" lon="7.388348"><ele></ele><time>2021-3-16T18:7:29Z</time></trkpt>
<trkpt lat="46.576489" lon="7.38827"><ele></ele><time>2021-3-16T18:7:32Z</time></trkpt>
<trkpt lat="46.576409" lon="7.388201"><ele></ele><time>2021-3-16T18:7:35Z</time></trkpt>
<trkpt lat="46.57638" lon="7.388166"><ele></ele><time>2021-3-16T18:7:38Z</time></trkpt>
<trkpt lat="46.576282" lon="7.38805"><ele></ele><time>2021-3-16T18:7:41Z</time></trkpt>
<trkpt lat="46.576282" lon="7.38805"><ele></ele><time>2021-3-16T18:7:44Z</time></trkpt>
<trkpt lat="46.576282" lon="7.388049"><ele></ele><time>2021-3-16T18:7:47Z</time></trkpt>
<trkpt lat="46.57619" lon="7.387948"><ele></ele><time>2021-3-16T18:7:50Z</time></trkpt>
<trkpt lat="46.576121" lon="7.387884"><ele></ele><time>2021-3-16T18:7:53Z</time></trkpt>
<trkpt lat="46.576047" lon="7.387835"><ele></ele><time>2021-3-16T18:7:56Z</time></trkpt>
<trkpt lat="46.575961" lon="7.38779"><ele></ele><time>2021-3-16T18:7:59Z</time></trkpt>
<trkpt lat="46.575889" lon="7.387755"><ele></ele><time>2021-3-16T18:8:2Z</time></trkpt>
<trkpt lat="46.575879" lon="7.387748"><ele></ele><time>2021-3-16T18:8:5Z</time></trkpt>
<trkpt lat="46.575813" lon="7.387705"><ele></ele><time>2021-3-16T18:8:8Z</time></trkpt>
<trkpt lat="46.575731" lon="7.387636"><ele></ele><time>2021-3-16T18:8:11Z</time></trkpt>
<trkpt lat="46.575641" lon="7.387537"><ele></ele><time>2021-3-16T18:8:14Z</time></trkpt>
<trkpt lat="46.575628" lon="7.387523"><ele></ele><time>2021-3-16T18:8:17Z</time></trkpt>
<trkpt lat="46.575422" lon="7.387331"><ele></ele><time>2021-3-16T18:8:20Z</time></trkpt>
<trkpt lat="46.575217" lon="7.38714"><ele></ele><time>2021-3-16T18:8:23Z</time></trkpt>
<trkpt lat="46.575064" lon="7.387002"><ele></ele><time>2021-3-16T18:8:26Z</time></trkpt>
<trkpt lat="46.5749" lon="7.386875"><ele></ele><time>2021-3-16T18:8:29Z</time></trkpt>
<trkpt lat="46.574794" lon="7.386781"><ele></ele><time>2021-3-16T18:8:32Z</time></trkpt>
<trkpt lat="46.574695" lon="7.386693"><ele></ele><time>2021-3-16T18:8:35Z</time></trkpt>
<trkpt lat="46.574618" lon="7.386596"><ele></ele><time>2021-3-16T18:8:38Z</time></trkpt>
<trkpt lat="46.574539" lon="7.386474"><ele></ele><time>2021-3-16T18:8:41Z</time></trkpt>
<trkpt lat="46.574531" lon="7.386461"><ele></ele><time>2021-3-16T18:8:44Z</time></trkpt>
<trkpt lat="46.574443" lon="7.386351"><ele></ele><time>2021-3-16T18:8:47Z</time></trkpt>
<trkpt lat="46.574329" lon="7.386246"><ele></ele><time>2021-3-16T18:8:50Z</time></trkpt>
<trkpt lat="46.57422" lon="7.386158"><ele></ele><time>2021-3-16T18:8:53Z</time></trkpt>
<trkpt lat="46.574108" lon="7.386064"><ele></ele><time>2021-3-16T18:8:56Z</time></trkpt>
<trkpt lat="46.573948" lon="7.385907"><ele></ele><time>2021-3-16T18:8:59Z</time></trkpt>
<trkpt lat="46.57387" lon="7.385818"><ele></ele><time>2021-3-16T18:9:2Z</time></trkpt>
<trkpt lat="46.57379" lon="7.385758"><ele></ele><time>2021-3-16T18:9:5Z</time></trkpt>
<trkpt lat="46.573696" lon="7.385689"><ele></ele><time>2021-3-16T18:9:8Z</time></trkpt>
<trkpt lat="46.573609" lon="7.385609"><ele></ele><time>2021-3-16T18:9:11Z</time></trkpt>
<trkpt lat="46.573544" lon="7.385518"><ele></ele><time>2021-3-16T18:9:14Z</time></trkpt>
<trkpt lat="46.573494" lon="7.385399"><ele></ele><time>2021-3-16T18:9:17Z</time></trkpt>
<trkpt lat="46.573432" lon="7.38528"><ele></ele><time>2021-3-16T18:9:20Z</time></trkpt>
<trkpt lat="46.573374" lon="7.3852"><ele></ele><time>2021-3-16T18:9:23Z</time></trkpt>
<trkpt lat="46.573281" lon="7.385129"><ele></ele><time>2021-3-16T18:9:26Z</time></trkpt>
<trkpt lat="46.573263" lon="7.385113"><ele></ele><time>2021-3-16T18:9:29Z</time></trkpt>
<trkpt lat="46.573174" lon="7.385032"><ele></ele><time>2021-3-16T18:9:32Z</time></trkpt>
<trkpt lat="46.573037" lon="7.384867"><ele></ele><time>2021-3-16T18:9:35Z</time></trkpt>
<trkpt lat="46.572875" lon="7.384616"><ele></ele><time>2021-3-16T18:9:38Z</time></trkpt>
<trkpt lat="46.572765" lon="7.384444"><ele></ele><time>2021-3-16T18:9:41Z</time></trkpt>
<trkpt lat="46.572709" lon="7.384381"><ele></ele><time>2021-3-16T18:9:44Z</time></trkpt>
<trkpt lat="46.572635" lon="7.38432"><ele></ele><time>2021-3-16T18:9:47Z</time></trkpt>
<trkpt lat="46.572615" lon="7.384299"><ele></ele><time>2021-3-16T18:9:50Z</time></trkpt>
<trkpt lat="46.572582" lon="7.384265"><ele></ele><time>2021-3-16T18:9:53Z</time></trkpt>
<trkpt lat="46.572566" lon="7.384228"><ele></ele><time>2021-3-16T18:9:56Z</time></trkpt>
<trkpt lat="46.572548" lon="7.384182"><ele></ele><time>2021-3-16T18:9:59Z</time></trkpt>
<trkpt lat="46.572523" lon="7.384044"><ele></ele><time>2021-3-16T18:10:2Z</time></trkpt>
<trkpt lat="46.572488" lon="7.383934"><ele></ele><time>2021-3-16T18:10:5Z</time></trkpt>
<trkpt lat="46.572448" lon="7.383859"><ele></ele><time>2021-3-16T18:10:8Z</time></trkpt>
<trkpt lat="46.572355" lon="7.383744"><ele></ele><time>2021-3-16T18:10:11Z</time></trkpt>
<trkpt lat="46.572288" lon="7.38365"><ele></ele><time>2021-3-16T18:10:14Z</time></trkpt>
<trkpt lat="46.572208" lon="7.383561"><ele></ele><time>2021-3-16T18:10:17Z</time></trkpt>
<trkpt lat="46.572151" lon="7.383512"><ele></ele><time>2021-3-16T18:10:20Z</time></trkpt>
<trkpt lat="46.572088" lon="7.38349"><ele></ele><time>2021-3-16T18:10:23Z</time></trkpt>
<trkpt lat="46.571998" lon="7.383487"><ele></ele><time>2021-3-16T18:10:26Z</time></trkpt>
<trkpt lat="46.571918" lon="7.383493"><ele></ele><time>2021-3-16T18:10:29Z</time></trkpt>
<trkpt lat="46.571838" lon="7.383479"><ele></ele><time>2021-3-16T18:10:32Z</time></trkpt>
<trkpt lat="46.571762" lon="7.383435"><ele></ele><time>2021-3-16T18:10:35Z</time></trkpt>
<trkpt lat="46.57162" lon="7.383335"><ele></ele><time>2021-3-16T18:10:38Z</time></trkpt>
<trkpt lat="46.57151" lon="7.383261"><ele></ele><time>2021-3-16T18:10:41Z</time></trkpt>
<trkpt lat="46.571416" lon="7.383203"><ele></ele><time>2021-3-16T18:10:44Z</time></trkpt>
<trkpt lat="46.571302" lon="7.38315"><ele></ele><time>2021-3-16T18:10:47Z</time></trkpt>
<trkpt lat="46.571199" lon="7.383123"><ele></ele><time>2021-3-16T18:10:50Z</time></trkpt>
<trkpt lat="46.571097" lon="7.383101"><ele></ele><time>2021-3-16T18:10:53Z</time></trkpt>
<trkpt lat="46.570979" lon="7.383087"><ele></ele><time>2021-3-16T18:10:56Z</time></trkpt>
<trkpt lat="46.570808" lon="7.383071"><ele></ele><time>2021-3-16T18:10:59Z</time></trkpt>
<trkpt lat="46.570695" lon="7.383035"><ele></ele><time>2021-3-16T18:11:2Z</time></trkpt>
<trkpt lat="46.570596" lon="7.382982"><ele></ele><time>2021-3-16T18:11:5Z</time></trkpt>
<trkpt lat="46.570462" lon="7.382897"><ele></ele><time>2021-3-16T18:11:8Z</time></trkpt>
<trkpt lat="46.570399" lon="7.382963"><ele></ele><time>2021-3-16T18:11:11Z</time></trkpt>
<trkpt lat="46.570292" lon="7.383057"><ele></ele><time>2021-3-16T18:11:14Z</time></trkpt>
<trkpt lat="46.570228" lon="7.383138"><ele></ele><time>2021-3-16T18:11:17Z</time></trkpt>
<trkpt lat="46.570168" lon="7.383226"><ele></ele><time>2021-3-16T18:11:20Z</time></trkpt>
<trkpt lat="46.570113" lon="7.383345"><ele></ele><time>2021-3-16T18:11:23Z</time></trkpt>
<trkpt lat="46.570071" lon="7.383464"><ele></ele><time>2021-3-16T18:11:26Z</time></trkpt>
<trkpt lat="46.570043" lon="7.383575"><ele></ele><time>2021-3-16T18:11:29Z</time></trkpt>
<trkpt lat="46.570008" lon="7.383719"><ele></ele><time>2021-3-16T18:11:32Z</time></trkpt>
<trkpt lat="46.569944" lon="7.383946"><ele></ele><time>2021-3-16T18:11:35Z</time></trkpt>
<trkpt lat="46.569883" lon="7.384137"><ele></ele><time>2021-3-16T18:11:38Z</time></trkpt>
<trkpt lat="46.569809" lon="7.384369"><ele></ele><time>2021-3-16T18:11:41Z</time></trkpt>
<trkpt lat="46.56977" lon="7.384471"><ele></ele><time>2021-3-16T18:11:44Z</time></trkpt>
<trkpt lat="46.569728" lon="7.384549"><ele></ele><time>2021-3-16T18:11:47Z</time></trkpt>
<trkpt lat="46.569666" lon="7.384635"><ele></ele><time>2021-3-16T18:11:50Z</time></trkpt>
<trkpt lat="46.569578" lon="7.384737"><ele></ele><time>2021-3-16T18:11:53Z</time></trkpt>
<trkpt lat="46.569492" lon="7.384831"><ele></ele><time>2021-3-16T18:11:56Z</time></trkpt>
<trkpt lat="46.569431" lon="7.384939"><ele></ele><time>2021-3-16T18:11:59Z</time></trkpt>
<trkpt lat="46.569359" lon="7.385072"><ele></ele><time>2021-3-16T18:12:2Z</time></trkpt>
<trkpt lat="46.569296" lon="7.385221"><ele></ele><time>2021-3-16T18:12:5Z</time></trkpt>
<trkpt lat="46.56925" lon="7.385365"><ele></ele><time>2021-3-16T18:12:8Z</time></trkpt>
<trkpt lat="46.569172" lon="7.385614"><ele></ele><time>2021-3-16T18:12:11Z</time></trkpt>
<trkpt lat="46.569092" lon="7.385869"><ele></ele><time>2021-3-16T18:12:14Z</time></trkpt>
<trkpt lat="46.569033" lon="7.38606"><ele></ele><time>2021-3-16T18:12:17Z</time></trkpt>
<trkpt lat="46.568995" lon="7.386143"><ele></ele><time>2021-3-16T18:12:20Z</time></trkpt>
<trkpt lat="46.568938" lon="7.386215"><ele></ele><time>2021-3-16T18:12:23Z</time></trkpt>
<trkpt lat="46.568854" lon="7.386279"><ele></ele><time>2021-3-16T18:12:26Z</time></trkpt>
<trkpt lat="46.568724" lon="7.386364"><ele></ele><time>2021-3-16T18:12:29Z</time></trkpt>
<trkpt lat="46.568613" lon="7.386453"><ele></ele><time>2021-3-16T18:12:32Z</time></trkpt>
<trkpt lat="46.568549" lon="7.386547"><ele></ele><time>2021-3-16T18:12:35Z</time></trkpt>
<trkpt lat="46.568446" lon="7.38673"><ele></ele><time>2021-3-16T18:12:38Z</time></trkpt>
<trkpt lat="46.568333" lon="7.38694"><ele></ele><time>2021-3-16T18:12:41Z</time></trkpt>
<trkpt lat="46.568215" lon="7.387131"><ele></ele><time>2021-3-16T18:12:44Z</time></trkpt>
<trkpt lat="46.568123" lon="7.387286"><ele></ele><time>2021-3-16T18:12:47Z</time></trkpt>
<trkpt lat="46.568062" lon="7.387361"><ele></ele><time>2021-3-16T18:12:50Z</time></trkpt>
<trkpt lat="46.567988" lon="7.387416"><ele></ele><time>2021-3-16T18:12:53Z</time></trkpt>
<trkpt lat="46.567935" lon="7.387441"><ele></ele><time>2021-3-16T18:12:56Z</time></trkpt>
<trkpt lat="46.567881" lon="7.387458"><ele></ele><time>2021-3-16T18:12:59Z</time></trkpt>
<trkpt lat="46.567803" lon="7.387452"><ele></ele><time>2021-3-16T18:13:2Z</time></trkpt>
<trkpt lat="46.56765" lon="7.387292"><ele></ele><time>2021-3-16T18:13:5Z</time></trkpt>
<trkpt lat="46.567591" lon="7.387234"><ele></ele><time>2021-3-16T18:13:8Z</time></trkpt>
<trkpt lat="46.567536" lon="7.387209"><ele></ele><time>2021-3-16T18:13:11Z</time></trkpt>
<trkpt lat="46.56746" lon="7.387212"><ele></ele><time>2021-3-16T18:13:14Z</time></trkpt>
<trkpt lat="46.567351" lon="7.387245"><ele></ele><time>2021-3-16T18:13:17Z</time></trkpt>
<trkpt lat="46.56724" lon="7.387268"><ele></ele><time>2021-3-16T18:13:20Z</time></trkpt>
<trkpt lat="46.56712" lon="7.387279"><ele></ele><time>2021-3-16T18:13:23Z</time></trkpt>
<trkpt lat="46.566962" lon="7.387268"><ele></ele><time>2021-3-16T18:13:26Z</time></trkpt>
<trkpt lat="46.566796" lon="7.387249"><ele></ele><time>2021-3-16T18:13:29Z</time></trkpt>
<trkpt lat="46.566683" lon="7.387232"><ele></ele><time>2021-3-16T18:13:32Z</time></trkpt>
<trkpt lat="46.566653" lon="7.387226"><ele></ele><time>2021-3-16T18:13:35Z</time></trkpt>
<trkpt lat="46.566614" lon="7.387218"><ele></ele><time>2021-3-16T18:13:38Z</time></trkpt>
<trkpt lat="46.566561" lon="7.387235"><ele></ele><time>2021-3-16T18:13:41Z</time></trkpt>
<trkpt lat="46.56641" lon="7.387302"><ele></ele><time>2021-3-16T18:13:44Z</time></trkpt>
<trkpt lat="46.566294" lon="7.387365"><ele></ele><time>2021-3-16T18:13:47Z</time></trkpt>
<trkpt lat="46.566218" lon="7.387407"><ele></ele><time>2021-3-16T18:13:50Z</time></trkpt>
<trkpt lat="46.566115" lon="7.387462"><ele></ele><time>2021-3-16T18:13:53Z</time></trkpt>
<trkpt lat="46.56609" lon="7.387349"><ele></ele><time>2021-3-16T18:13:56Z</time></trkpt>
<trkpt lat="46.566088" lon="7.387269"><ele></ele><time>2021-3-16T18:13:59Z</time></trkpt>
<trkpt lat="46.566084" lon="7.387172"><ele></ele><time>2021-3-16T18:14:2Z</time></trkpt>
<trkpt lat="46.566067" lon="7.387061"><ele></ele><time>2021-3-16T18:14:5Z</time></trkpt>
<trkpt lat="46.56605" lon="7.386948"><ele></ele><time>2021-3-16T18:14:8Z</time></trkpt>
<trkpt lat="46.56604" lon="7.386804"><ele></ele><time>2021-3-16T18:14:11Z</time></trkpt>
<trkpt lat="46.566034" lon="7.386594"><ele></ele><time>2021-3-16T18:14:14Z</time></trkpt>
<trkpt lat="46.566028" lon="7.386334"><ele></ele><time>2021-3-16T18:14:17Z</time></trkpt>
<trkpt lat="46.565931" lon="7.386226"><ele></ele><time>2021-3-16T18:14:20Z</time></trkpt>
<trkpt lat="46.565878" lon="7.386149"><ele></ele><time>2021-3-16T18:14:23Z</time></trkpt>
<trkpt lat="46.565845" lon="7.386063"><ele></ele><time>2021-3-16T18:14:26Z</time></trkpt>
<trkpt lat="46.565818" lon="7.385925"><ele></ele><time>2021-3-16T18:14:29Z</time></trkpt>
<trkpt lat="46.565784" lon="7.385778"><ele></ele><time>2021-3-16T18:14:32Z</time></trkpt>
<trkpt lat="46.56575" lon="7.385737"><ele></ele><time>2021-3-16T18:14:35Z</time></trkpt>
<trkpt lat="46.565713" lon="7.385632"><ele></ele><time>2021-3-16T18:14:38Z</time></trkpt>
<trkpt lat="46.565666" lon="7.385557"><ele></ele><time>2021-3-16T18:14:41Z</time></trkpt>
<trkpt lat="46.565564" lon="7.385455"><ele></ele><time>2021-3-16T18:14:44Z</time></trkpt>
<trkpt lat="46.565438" lon="7.385342"><ele></ele><time>2021-3-16T18:14:47Z</time></trkpt>
<trkpt lat="46.565328" lon="7.385231"><ele></ele><time>2021-3-16T18:14:50Z</time></trkpt>
<trkpt lat="46.565213" lon="7.385112"><ele></ele><time>2021-3-16T18:14:53Z</time></trkpt>
<trkpt lat="46.565166" lon="7.385072"><ele></ele><time>2021-3-16T18:14:56Z</time></trkpt>
<trkpt lat="46.565166" lon="7.385072"><ele></ele><time>2021-3-16T18:14:59Z</time></trkpt>
<trkpt lat="46.565101" lon="7.385015"><ele></ele><time>2021-3-16T18:15:2Z</time></trkpt>
<trkpt lat="46.564885" lon="7.384822"><ele></ele><time>2021-3-16T18:15:5Z</time></trkpt>
<trkpt lat="46.564709" lon="7.38467"><ele></ele><time>2021-3-16T18:15:8Z</time></trkpt>
<trkpt lat="46.564623" lon="7.384579"><ele></ele><time>2021-3-16T18:15:11Z</time></trkpt>
<trkpt lat="46.564486" lon="7.384452"><ele></ele><time>2021-3-16T18:15:14Z</time></trkpt>
<trkpt lat="46.564396" lon="7.384374"><ele></ele><time>2021-3-16T18:15:17Z</time></trkpt>
<trkpt lat="46.564301" lon="7.384261"><ele></ele><time>2021-3-16T18:15:20Z</time></trkpt>
<trkpt lat="46.564156" lon="7.38409"><ele></ele><time>2021-3-16T18:15:23Z</time></trkpt>
<trkpt lat="46.564051" lon="7.383946"><ele></ele><time>2021-3-16T18:15:26Z</time></trkpt>
<trkpt lat="46.563967" lon="7.383819"><ele></ele><time>2021-3-16T18:15:29Z</time></trkpt>
<trkpt lat="46.563904" lon="7.383728"><ele></ele><time>2021-3-16T18:15:32Z</time></trkpt>
<trkpt lat="46.563806" lon="7.383609"><ele></ele><time>2021-3-16T18:15:35Z</time></trkpt>
<trkpt lat="46.563642" lon="7.38341"><ele></ele><time>2021-3-16T18:15:38Z</time></trkpt>
<trkpt lat="46.563587" lon="7.383327"><ele></ele><time>2021-3-16T18:15:41Z</time></trkpt>
<trkpt lat="46.563516" lon="7.383189"><ele></ele><time>2021-3-16T18:15:44Z</time></trkpt>
<trkpt lat="46.563447" lon="7.383073"><ele></ele><time>2021-3-16T18:15:47Z</time></trkpt>
<trkpt lat="46.563369" lon="7.382948"><ele></ele><time>2021-3-16T18:15:50Z</time></trkpt>
<trkpt lat="46.563339" lon="7.382863"><ele></ele><time>2021-3-16T18:15:53Z</time></trkpt>
<trkpt lat="46.563228" lon="7.382879"><ele></ele><time>2021-3-16T18:15:56Z</time></trkpt>
<trkpt lat="46.563094" lon="7.382896"><ele></ele><time>2021-3-16T18:15:59Z</time></trkpt>
<trkpt lat="46.562968" lon="7.382907"><ele></ele><time>2021-3-16T18:16:2Z</time></trkpt>
<trkpt lat="46.562867" lon="7.382903"><ele></ele><time>2021-3-16T18:16:5Z</time></trkpt>
<trkpt lat="46.562858" lon="7.382941"><ele></ele><time>2021-3-16T18:16:8Z</time></trkpt>
<trkpt lat="46.56284" lon="7.382923"><ele></ele><time>2021-3-16T18:16:11Z</time></trkpt>
<trkpt lat="46.562785" lon="7.382877"><ele></ele><time>2021-3-16T18:16:14Z</time></trkpt>
<trkpt lat="46.562739" lon="7.382825"><ele></ele><time>2021-3-16T18:16:17Z</time></trkpt>
<trkpt lat="46.562659" lon="7.382744"><ele></ele><time>2021-3-16T18:16:20Z</time></trkpt>
<trkpt lat="46.562564" lon="7.382692"><ele></ele><time>2021-3-16T18:16:23Z</time></trkpt>
<trkpt lat="46.562448" lon="7.382667"><ele></ele><time>2021-3-16T18:16:26Z</time></trkpt>
<trkpt lat="46.562324" lon="7.382659"><ele></ele><time>2021-3-16T18:16:29Z</time></trkpt>
<trkpt lat="46.562167" lon="7.382665"><ele></ele><time>2021-3-16T18:16:32Z</time></trkpt>
<trkpt lat="46.561986" lon="7.382657"><ele></ele><time>2021-3-16T18:16:35Z</time></trkpt>
<trkpt lat="46.561793" lon="7.382637"><ele></ele><time>2021-3-16T18:16:38Z</time></trkpt>
<trkpt lat="46.561681" lon="7.382632"><ele></ele><time>2021-3-16T18:16:41Z</time></trkpt>
<trkpt lat="46.561516" lon="7.382638"><ele></ele><time>2021-3-16T18:16:44Z</time></trkpt>
<trkpt lat="46.561471" lon="7.382637"><ele></ele><time>2021-3-16T18:16:47Z</time></trkpt>
<trkpt lat="46.561314" lon="7.382632"><ele></ele><time>2021-3-16T18:16:50Z</time></trkpt>
<trkpt lat="46.561095" lon="7.382622"><ele></ele><time>2021-3-16T18:16:53Z</time></trkpt>
<trkpt lat="46.560864" lon="7.382616"><ele></ele><time>2021-3-16T18:16:56Z</time></trkpt>
<trkpt lat="46.560715" lon="7.382619"><ele></ele><time>2021-3-16T18:16:59Z</time></trkpt>
<trkpt lat="46.560555" lon="7.382639"><ele></ele><time>2021-3-16T18:17:2Z</time></trkpt>
<trkpt lat="46.560418" lon="7.382661"><ele></ele><time>2021-3-16T18:17:5Z</time></trkpt>
<trkpt lat="46.560185" lon="7.382719"><ele></ele><time>2021-3-16T18:17:8Z</time></trkpt>
<trkpt lat="46.55999" lon="7.382767"><ele></ele><time>2021-3-16T18:17:11Z</time></trkpt>
<trkpt lat="46.559899" lon="7.3828"><ele></ele><time>2021-3-16T18:17:14Z</time></trkpt>
<trkpt lat="46.559817" lon="7.382825"><ele></ele><time>2021-3-16T18:17:17Z</time></trkpt>
<trkpt lat="46.559735" lon="7.382825"><ele></ele><time>2021-3-16T18:17:20Z</time></trkpt>
<trkpt lat="46.559635" lon="7.382803"><ele></ele><time>2021-3-16T18:17:23Z</time></trkpt>
<trkpt lat="46.559544" lon="7.382781"><ele></ele><time>2021-3-16T18:17:26Z</time></trkpt>
<trkpt lat="46.559447" lon="7.382775"><ele></ele><time>2021-3-16T18:17:29Z</time></trkpt>
<trkpt lat="46.559336" lon="7.382781"><ele></ele><time>2021-3-16T18:17:32Z</time></trkpt>
<trkpt lat="46.559174" lon="7.382812"><ele></ele><time>2021-3-16T18:17:35Z</time></trkpt>
<trkpt lat="46.559069" lon="7.382826"><ele></ele><time>2021-3-16T18:17:38Z</time></trkpt>
<trkpt lat="46.558975" lon="7.382823"><ele></ele><time>2021-3-16T18:17:41Z</time></trkpt>
<trkpt lat="46.558861" lon="7.382801"><ele></ele><time>2021-3-16T18:17:44Z</time></trkpt>
<trkpt lat="46.558687" lon="7.382757"><ele></ele><time>2021-3-16T18:17:47Z</time></trkpt>
<trkpt lat="46.55851" lon="7.382705"><ele></ele><time>2021-3-16T18:17:50Z</time></trkpt>
<trkpt lat="46.558346" lon="7.38266"><ele></ele><time>2021-3-16T18:17:53Z</time></trkpt>
<trkpt lat="46.55822" lon="7.382614"><ele></ele><time>2021-3-16T18:17:56Z</time></trkpt>
<trkpt lat="46.558084" lon="7.38255"><ele></ele><time>2021-3-16T18:17:59Z</time></trkpt>
<trkpt lat="46.55796" lon="7.382492"><ele></ele><time>2021-3-16T18:18:2Z</time></trkpt>
<trkpt lat="46.557844" lon="7.382443"><ele></ele><time>2021-3-16T18:18:5Z</time></trkpt>
<trkpt lat="46.557789" lon="7.382426"><ele></ele><time>2021-3-16T18:18:8Z</time></trkpt>
<trkpt lat="46.55771" lon="7.382418"><ele></ele><time>2021-3-16T18:18:11Z</time></trkpt>
<trkpt lat="46.557563" lon="7.382429"><ele></ele><time>2021-3-16T18:18:14Z</time></trkpt>
<trkpt lat="46.557457" lon="7.382448"><ele></ele><time>2021-3-16T18:18:17Z</time></trkpt>
<trkpt lat="46.557281" lon="7.382496"><ele></ele><time>2021-3-16T18:18:20Z</time></trkpt>
<trkpt lat="46.55709" lon="7.382546"><ele></ele><time>2021-3-16T18:18:23Z</time></trkpt>
<trkpt lat="46.556953" lon="7.38259"><ele></ele><time>2021-3-16T18:18:26Z</time></trkpt>
<trkpt lat="46.556854" lon="7.38264"><ele></ele><time>2021-3-16T18:18:29Z</time></trkpt>
<trkpt lat="46.556738" lon="7.382712"><ele></ele><time>2021-3-16T18:18:32Z</time></trkpt>
<trkpt lat="46.556623" lon="7.382798"><ele></ele><time>2021-3-16T18:18:35Z</time></trkpt>
<trkpt lat="46.556522" lon="7.382892"><ele></ele><time>2021-3-16T18:18:38Z</time></trkpt>
<trkpt lat="46.556429" lon="7.382994"><ele></ele><time>2021-3-16T18:18:41Z</time></trkpt>
<trkpt lat="46.55623" lon="7.383235"><ele></ele><time>2021-3-16T18:18:44Z</time></trkpt>
<trkpt lat="46.556169" lon="7.383307"><ele></ele><time>2021-3-16T18:18:47Z</time></trkpt>
<trkpt lat="46.556139" lon="7.383374"><ele></ele><time>2021-3-16T18:18:50Z</time></trkpt>
<trkpt lat="46.556118" lon="7.38344"><ele></ele><time>2021-3-16T18:18:53Z</time></trkpt>
<trkpt lat="46.556201" lon="7.383454"><ele></ele><time>2021-3-16T18:18:56Z</time></trkpt>
<trkpt lat="46.556298" lon="7.383437"><ele></ele><time>2021-3-16T18:18:59Z</time></trkpt>
<trkpt lat="46.556519" lon="7.383396"><ele></ele><time>2021-3-16T18:19:2Z</time></trkpt>
<trkpt lat="46.556719" lon="7.383357"><ele></ele><time>2021-3-16T18:19:5Z</time></trkpt>
<trkpt lat="46.556816" lon="7.383351"><ele></ele><time>2021-3-16T18:19:8Z</time></trkpt>
<trkpt lat="46.556879" lon="7.383387"><ele></ele><time>2021-3-16T18:19:11Z</time></trkpt>
<trkpt lat="46.556932" lon="7.383459"><ele></ele><time>2021-3-16T18:19:14Z</time></trkpt>
<trkpt lat="46.556959" lon="7.383539"><ele></ele><time>2021-3-16T18:19:17Z</time></trkpt>
<trkpt lat="46.556962" lon="7.383644"><ele></ele><time>2021-3-16T18:19:20Z</time></trkpt>
<trkpt lat="46.556961" lon="7.383856"><ele></ele><time>2021-3-16T18:19:23Z</time></trkpt>
<trkpt lat="46.556961" lon="7.38414"><ele></ele><time>2021-3-16T18:19:26Z</time></trkpt>
<trkpt lat="46.556961" lon="7.384411"><ele></ele><time>2021-3-16T18:19:29Z</time></trkpt>
<trkpt lat="46.556955" lon="7.384599"><ele></ele><time>2021-3-16T18:19:32Z</time></trkpt>
<trkpt lat="46.556944" lon="7.384748"><ele></ele><time>2021-3-16T18:19:35Z</time></trkpt>
<trkpt lat="46.556931" lon="7.384877"><ele></ele><time>2021-3-16T18:19:38Z</time></trkpt>
<trkpt lat="46.556898" lon="7.385029"><ele></ele><time>2021-3-16T18:19:41Z</time></trkpt>
<trkpt lat="46.556876" lon="7.385126"><ele></ele><time>2021-3-16T18:19:44Z</time></trkpt>
<trkpt lat="46.556859" lon="7.385239"><ele></ele><time>2021-3-16T18:19:47Z</time></trkpt>
<trkpt lat="46.556849" lon="7.385391"><ele></ele><time>2021-3-16T18:19:50Z</time></trkpt>
<trkpt lat="46.55684" lon="7.385673"><ele></ele><time>2021-3-16T18:19:53Z</time></trkpt>
<trkpt lat="46.556838" lon="7.38571"><ele></ele><time>2021-3-16T18:19:56Z</time></trkpt>
<trkpt lat="46.55683" lon="7.385891"><ele></ele><time>2021-3-16T18:19:59Z</time></trkpt>
<trkpt lat="46.556825" lon="7.386092"><ele></ele><time>2021-3-16T18:20:2Z</time></trkpt>
<trkpt lat="46.556829" lon="7.386291"><ele></ele><time>2021-3-16T18:20:5Z</time></trkpt>
<trkpt lat="46.556663" lon="7.386382"><ele></ele><time>2021-3-16T18:20:8Z</time></trkpt>
<trkpt lat="46.556562" lon="7.386437"><ele></ele><time>2021-3-16T18:20:11Z</time></trkpt>
<trkpt lat="46.556419" lon="7.386501"><ele></ele><time>2021-3-16T18:20:14Z</time></trkpt>
<trkpt lat="46.556271" lon="7.386548"><ele></ele><time>2021-3-16T18:20:17Z</time></trkpt>
<trkpt lat="46.556067" lon="7.386609"><ele></ele><time>2021-3-16T18:20:20Z</time></trkpt>
<trkpt lat="46.555962" lon="7.386637"><ele></ele><time>2021-3-16T18:20:23Z</time></trkpt>
<trkpt lat="46.555787" lon="7.386664"><ele></ele><time>2021-3-16T18:20:26Z</time></trkpt>
<trkpt lat="46.55566" lon="7.386673"><ele></ele><time>2021-3-16T18:20:29Z</time></trkpt>
<trkpt lat="46.555524" lon="7.386687"><ele></ele><time>2021-3-16T18:20:32Z</time></trkpt>
<trkpt lat="46.555336" lon="7.386712"><ele></ele><time>2021-3-16T18:20:35Z</time></trkpt>
<trkpt lat="46.555149" lon="7.386734"><ele></ele><time>2021-3-16T18:20:38Z</time></trkpt>
<trkpt lat="46.555069" lon="7.386748"><ele></ele><time>2021-3-16T18:20:41Z</time></trkpt>
<trkpt lat="46.554984" lon="7.386789"><ele></ele><time>2021-3-16T18:20:44Z</time></trkpt>
<trkpt lat="46.554906" lon="7.386864"><ele></ele><time>2021-3-16T18:20:47Z</time></trkpt>
<trkpt lat="46.554826" lon="7.386977"><ele></ele><time>2021-3-16T18:20:50Z</time></trkpt>
<trkpt lat="46.554723" lon="7.387149"><ele></ele><time>2021-3-16T18:20:53Z</time></trkpt>
<trkpt lat="46.554637" lon="7.387292"><ele></ele><time>2021-3-16T18:20:56Z</time></trkpt>
<trkpt lat="46.554586" lon="7.387358"><ele></ele><time>2021-3-16T18:20:59Z</time></trkpt>
<trkpt lat="46.554561" lon="7.387376"><ele></ele><time>2021-3-16T18:21:2Z</time></trkpt>
<trkpt lat="46.55456" lon="7.387377"><ele></ele><time>2021-3-16T18:21:5Z</time></trkpt>
<trkpt lat="46.554531" lon="7.387397"><ele></ele><time>2021-3-16T18:21:8Z</time></trkpt>
<trkpt lat="46.554479" lon="7.387417"><ele></ele><time>2021-3-16T18:21:11Z</time></trkpt>
<trkpt lat="46.554377" lon="7.387425"><ele></ele><time>2021-3-16T18:21:14Z</time></trkpt>
<trkpt lat="46.55424" lon="7.387431"><ele></ele><time>2021-3-16T18:21:17Z</time></trkpt>
<trkpt lat="46.554093" lon="7.387439"><ele></ele><time>2021-3-16T18:21:20Z</time></trkpt>
<trkpt lat="46.553958" lon="7.387453"><ele></ele><time>2021-3-16T18:21:23Z</time></trkpt>
<trkpt lat="46.553878" lon="7.387472"><ele></ele><time>2021-3-16T18:21:26Z</time></trkpt>
<trkpt lat="46.553775" lon="7.387514"><ele></ele><time>2021-3-16T18:21:29Z</time></trkpt>
<trkpt lat="46.553653" lon="7.387564"><ele></ele><time>2021-3-16T18:21:32Z</time></trkpt>
<trkpt lat="46.553478" lon="7.387627"><ele></ele><time>2021-3-16T18:21:35Z</time></trkpt>
<trkpt lat="46.553229" lon="7.387724"><ele></ele><time>2021-3-16T18:21:38Z</time></trkpt>
<trkpt lat="46.553093" lon="7.387782"><ele></ele><time>2021-3-16T18:21:41Z</time></trkpt>
<trkpt lat="46.552977" lon="7.387851"><ele></ele><time>2021-3-16T18:21:44Z</time></trkpt>
<trkpt lat="46.552878" lon="7.387937"><ele></ele><time>2021-3-16T18:21:47Z</time></trkpt>
<trkpt lat="46.552802" lon="7.388047"><ele></ele><time>2021-3-16T18:21:50Z</time></trkpt>
<trkpt lat="46.552741" lon="7.388199"><ele></ele><time>2021-3-16T18:21:53Z</time></trkpt>
<trkpt lat="46.552698" lon="7.388362"><ele></ele><time>2021-3-16T18:21:56Z</time></trkpt>
<trkpt lat="46.552652" lon="7.388594"><ele></ele><time>2021-3-16T18:21:59Z</time></trkpt>
<trkpt lat="46.552618" lon="7.388787"><ele></ele><time>2021-3-16T18:22:2Z</time></trkpt>
<trkpt lat="46.552587" lon="7.388892"><ele></ele><time>2021-3-16T18:22:5Z</time></trkpt>
<trkpt lat="46.552532" lon="7.388972"><ele></ele><time>2021-3-16T18:22:8Z</time></trkpt>
<trkpt lat="46.552468" lon="7.389033"><ele></ele><time>2021-3-16T18:22:11Z</time></trkpt>
<trkpt lat="46.552344" lon="7.389099"><ele></ele><time>2021-3-16T18:22:14Z</time></trkpt>
<trkpt lat="46.552115" lon="7.389202"><ele></ele><time>2021-3-16T18:22:17Z</time></trkpt>
<trkpt lat="46.551982" lon="7.389276"><ele></ele><time>2021-3-16T18:22:20Z</time></trkpt>
<trkpt lat="46.551942" lon="7.389323"><ele></ele><time>2021-3-16T18:22:23Z</time></trkpt>
<trkpt lat="46.551933" lon="7.389398"><ele></ele><time>2021-3-16T18:22:26Z</time></trkpt>
<trkpt lat="46.551856" lon="7.389329"><ele></ele><time>2021-3-16T18:22:29Z</time></trkpt>
<trkpt lat="46.551807" lon="7.389274"><ele></ele><time>2021-3-16T18:22:32Z</time></trkpt>
<trkpt lat="46.551769" lon="7.389177"><ele></ele><time>2021-3-16T18:22:35Z</time></trkpt>
<trkpt lat="46.551744" lon="7.389075"><ele></ele><time>2021-3-16T18:22:38Z</time></trkpt>
<trkpt lat="46.551734" lon="7.388965"><ele></ele><time>2021-3-16T18:22:41Z</time></trkpt>
<trkpt lat="46.551734" lon="7.388827"><ele></ele><time>2021-3-16T18:22:44Z</time></trkpt>
<trkpt lat="46.551734" lon="7.388689"><ele></ele><time>2021-3-16T18:22:47Z</time></trkpt>
<trkpt lat="46.551719" lon="7.388598"><ele></ele><time>2021-3-16T18:22:50Z</time></trkpt>
<trkpt lat="46.551685" lon="7.388526"><ele></ele><time>2021-3-16T18:22:53Z</time></trkpt>
<trkpt lat="46.551637" lon="7.388487"><ele></ele><time>2021-3-16T18:22:56Z</time></trkpt>
<trkpt lat="46.551563" lon="7.388468"><ele></ele><time>2021-3-16T18:22:59Z</time></trkpt>
<trkpt lat="46.551445" lon="7.388446"><ele></ele><time>2021-3-16T18:23:2Z</time></trkpt>
<trkpt lat="46.551294" lon="7.388416"><ele></ele><time>2021-3-16T18:23:5Z</time></trkpt>
<trkpt lat="46.551199" lon="7.388402"><ele></ele><time>2021-3-16T18:23:8Z</time></trkpt>
<trkpt lat="46.551098" lon="7.388408"><ele></ele><time>2021-3-16T18:23:11Z</time></trkpt>
<trkpt lat="46.551007" lon="7.388436"><ele></ele><time>2021-3-16T18:23:14Z</time></trkpt>
<trkpt lat="46.550952" lon="7.38846"><ele></ele><time>2021-3-16T18:23:17Z</time></trkpt>
<trkpt lat="46.550895" lon="7.38848"><ele></ele><time>2021-3-16T18:23:20Z</time></trkpt>
<trkpt lat="46.550843" lon="7.388474"><ele></ele><time>2021-3-16T18:23:23Z</time></trkpt>
<trkpt lat="46.550769" lon="7.388422"><ele></ele><time>2021-3-16T18:23:26Z</time></trkpt>
<trkpt lat="46.550693" lon="7.388353"><ele></ele><time>2021-3-16T18:23:29Z</time></trkpt>
<trkpt lat="46.550605" lon="7.388262"><ele></ele><time>2021-3-16T18:23:32Z</time></trkpt>
<trkpt lat="46.550504" lon="7.388182"><ele></ele><time>2021-3-16T18:23:35Z</time></trkpt>
<trkpt lat="46.550409" lon="7.388121"><ele></ele><time>2021-3-16T18:23:38Z</time></trkpt>
<trkpt lat="46.550331" lon="7.388083"><ele></ele><time>2021-3-16T18:23:41Z</time></trkpt>
<trkpt lat="46.550249" lon="7.388066"><ele></ele><time>2021-3-16T18:23:44Z</time></trkpt>
<trkpt lat="46.550154" lon="7.388042"><ele></ele><time>2021-3-16T18:23:47Z</time></trkpt>
<trkpt lat="46.550028" lon="7.387981"><ele></ele><time>2021-3-16T18:23:50Z</time></trkpt>
<trkpt lat="46.549898" lon="7.387915"><ele></ele><time>2021-3-16T18:23:53Z</time></trkpt>
<trkpt lat="46.549723" lon="7.38781"><ele></ele><time>2021-3-16T18:23:56Z</time></trkpt>
<trkpt lat="46.549544" lon="7.387706"><ele></ele><time>2021-3-16T18:23:59Z</time></trkpt>
<trkpt lat="46.549396" lon="7.38762"><ele></ele><time>2021-3-16T18:24:2Z</time></trkpt>
<trkpt lat="46.549228" lon="7.387524"><ele></ele><time>2021-3-16T18:24:5Z</time></trkpt>
<trkpt lat="46.549091" lon="7.387444"><ele></ele><time>2021-3-16T18:24:8Z</time></trkpt>
<trkpt lat="46.548978" lon="7.387383"><ele></ele><time>2021-3-16T18:24:11Z</time></trkpt>
<trkpt lat="46.548853" lon="7.387323"><ele></ele><time>2021-3-16T18:24:14Z</time></trkpt>
<trkpt lat="46.548773" lon="7.387268"><ele></ele><time>2021-3-16T18:24:17Z</time></trkpt>
<trkpt lat="46.548689" lon="7.387188"><ele></ele><time>2021-3-16T18:24:20Z</time></trkpt>
<trkpt lat="46.548596" lon="7.387091"><ele></ele><time>2021-3-16T18:24:23Z</time></trkpt>
<trkpt lat="46.548508" lon="7.387033"><ele></ele><time>2021-3-16T18:24:26Z</time></trkpt>
<trkpt lat="46.548405" lon="7.386981"><ele></ele><time>2021-3-16T18:24:29Z</time></trkpt>
<trkpt lat="46.548278" lon="7.38692"><ele></ele><time>2021-3-16T18:24:32Z</time></trkpt>
<trkpt lat="46.548163" lon="7.386879"><ele></ele><time>2021-3-16T18:24:35Z</time></trkpt>
<trkpt lat="46.548087" lon="7.38684"><ele></ele><time>2021-3-16T18:24:38Z</time></trkpt>
<trkpt lat="46.548026" lon="7.386777"><ele></ele><time>2021-3-16T18:24:41Z</time></trkpt>
<trkpt lat="46.547948" lon="7.386703"><ele></ele><time>2021-3-16T18:24:44Z</time></trkpt>
<trkpt lat="46.547868" lon="7.386625"><ele></ele><time>2021-3-16T18:24:47Z</time></trkpt>
<trkpt lat="46.547792" lon="7.386576"><ele></ele><time>2021-3-16T18:24:50Z</time></trkpt>
<trkpt lat="46.547699" lon="7.386534"><ele></ele><time>2021-3-16T18:24:53Z</time></trkpt>
<trkpt lat="46.547558" lon="7.38649"><ele></ele><time>2021-3-16T18:24:56Z</time></trkpt>
<trkpt lat="46.547426" lon="7.386444"><ele></ele><time>2021-3-16T18:24:59Z</time></trkpt>
<trkpt lat="46.547331" lon="7.386416"><ele></ele><time>2021-3-16T18:25:2Z</time></trkpt>
<trkpt lat="46.547181" lon="7.386386"><ele></ele><time>2021-3-16T18:25:5Z</time></trkpt>
<trkpt lat="46.547072" lon="7.386372"><ele></ele><time>2021-3-16T18:25:8Z</time></trkpt>
<trkpt lat="46.547" lon="7.386389"><ele></ele><time>2021-3-16T18:25:11Z</time></trkpt>
<trkpt lat="46.546937" lon="7.386417"><ele></ele><time>2021-3-16T18:25:14Z</time></trkpt>
<trkpt lat="46.546887" lon="7.386425"><ele></ele><time>2021-3-16T18:25:17Z</time></trkpt>
<trkpt lat="46.54684" lon="7.386395"><ele></ele><time>2021-3-16T18:25:20Z</time></trkpt>
<trkpt lat="46.546808" lon="7.386345"><ele></ele><time>2021-3-16T18:25:23Z</time></trkpt>
<trkpt lat="46.546806" lon="7.386259"><ele></ele><time>2021-3-16T18:25:26Z</time></trkpt>
<trkpt lat="46.546821" lon="7.386201"><ele></ele><time>2021-3-16T18:25:29Z</time></trkpt>
<trkpt lat="46.546876" lon="7.386148"><ele></ele><time>2021-3-16T18:25:32Z</time></trkpt>
<trkpt lat="46.546981" lon="7.386065"><ele></ele><time>2021-3-16T18:25:35Z</time></trkpt>
<trkpt lat="46.547055" lon="7.385996"><ele></ele><time>2021-3-16T18:25:38Z</time></trkpt>
<trkpt lat="46.547153" lon="7.385949"><ele></ele><time>2021-3-16T18:25:41Z</time></trkpt>
<trkpt lat="46.547256" lon="7.385913"><ele></ele><time>2021-3-16T18:25:44Z</time></trkpt>
<trkpt lat="46.547387" lon="7.385904"><ele></ele><time>2021-3-16T18:25:47Z</time></trkpt>
<trkpt lat="46.547498" lon="7.385918"><ele></ele><time>2021-3-16T18:25:50Z</time></trkpt>
<trkpt lat="46.547607" lon="7.385937"><ele></ele><time>2021-3-16T18:25:53Z</time></trkpt>
<trkpt lat="46.547689" lon="7.385929"><ele></ele><time>2021-3-16T18:25:56Z</time></trkpt>
<trkpt lat="46.547757" lon="7.385901"><ele></ele><time>2021-3-16T18:25:59Z</time></trkpt>
<trkpt lat="46.547836" lon="7.385846"><ele></ele><time>2021-3-16T18:26:2Z</time></trkpt>
<trkpt lat="46.547912" lon="7.385815"><ele></ele><time>2021-3-16T18:26:5Z</time></trkpt>
<trkpt lat="46.547963" lon="7.385813"><ele></ele><time>2021-3-16T18:26:8Z</time></trkpt>
<trkpt lat="46.548017" lon="7.385837"><ele></ele><time>2021-3-16T18:26:11Z</time></trkpt>
<trkpt lat="46.548086" lon="7.385901"><ele></ele><time>2021-3-16T18:26:14Z</time></trkpt>
<trkpt lat="46.548133" lon="7.385948"><ele></ele><time>2021-3-16T18:26:17Z</time></trkpt>
<trkpt lat="46.548173" lon="7.385959"><ele></ele><time>2021-3-16T18:26:20Z</time></trkpt>
<trkpt lat="46.548215" lon="7.385945"><ele></ele><time>2021-3-16T18:26:23Z</time></trkpt>
<trkpt lat="46.548248" lon="7.385892"><ele></ele><time>2021-3-16T18:26:26Z</time></trkpt>
<trkpt lat="46.54825" lon="7.385826"><ele></ele><time>2021-3-16T18:26:29Z</time></trkpt>
<trkpt lat="46.548227" lon="7.385765"><ele></ele><time>2021-3-16T18:26:32Z</time></trkpt>
<trkpt lat="46.548187" lon="7.385721"><ele></ele><time>2021-3-16T18:26:35Z</time></trkpt>
<trkpt lat="46.548106" lon="7.385691"><ele></ele><time>2021-3-16T18:26:38Z</time></trkpt>
<trkpt lat="46.548013" lon="7.385655"><ele></ele><time>2021-3-16T18:26:41Z</time></trkpt>
<trkpt lat="46.547895" lon="7.385591"><ele></ele><time>2021-3-16T18:26:44Z</time></trkpt>
<trkpt lat="46.547744" lon="7.385495"><ele></ele><time>2021-3-16T18:26:47Z</time></trkpt>
<trkpt lat="46.547624" lon="7.385406"><ele></ele><time>2021-3-16T18:26:50Z</time></trkpt>
<trkpt lat="46.54753" lon="7.385313"><ele></ele><time>2021-3-16T18:26:53Z</time></trkpt>
<trkpt lat="46.547414" lon="7.385191"><ele></ele><time>2021-3-16T18:26:56Z</time></trkpt>
<trkpt lat="46.547347" lon="7.385127"><ele></ele><time>2021-3-16T18:26:59Z</time></trkpt>
<trkpt lat="46.547471" lon="7.385083"><ele></ele><time>2021-3-16T18:27:2Z</time></trkpt>
<trkpt lat="46.547564" lon="7.385042"><ele></ele><time>2021-3-16T18:27:5Z</time></trkpt>
<trkpt lat="46.547662" lon="7.384986"><ele></ele><time>2021-3-16T18:27:8Z</time></trkpt>
<trkpt lat="46.547793" lon="7.384898"><ele></ele><time>2021-3-16T18:27:11Z</time></trkpt>
<trkpt lat="46.547896" lon="7.384837"><ele></ele><time>2021-3-16T18:27:14Z</time></trkpt>
<trkpt lat="46.547992" lon="7.384792"><ele></ele><time>2021-3-16T18:27:17Z</time></trkpt>
<trkpt lat="46.548004" lon="7.384788"><ele></ele><time>2021-3-16T18:27:20Z</time></trkpt>
<trkpt lat="46.548004" lon="7.384788"><ele></ele><time>2021-3-16T18:27:23Z</time></trkpt>
<trkpt lat="46.548115" lon="7.384751"><ele></ele><time>2021-3-16T18:27:26Z</time></trkpt>
<trkpt lat="46.548287" lon="7.384709"><ele></ele><time>2021-3-16T18:27:29Z</time></trkpt>
<trkpt lat="46.548463" lon="7.384673"><ele></ele><time>2021-3-16T18:27:32Z</time></trkpt>
<trkpt lat="46.548623" lon="7.384642"><ele></ele><time>2021-3-16T18:27:35Z</time></trkpt>
<trkpt lat="46.548777" lon="7.384623"><ele></ele><time>2021-3-16T18:27:38Z</time></trkpt>
<trkpt lat="46.548926" lon="7.384617"><ele></ele><time>2021-3-16T18:27:41Z</time></trkpt>
<trkpt lat="46.549085" lon="7.38462"><ele></ele><time>2021-3-16T18:27:44Z</time></trkpt>
<trkpt lat="46.549233" lon="7.384628"><ele></ele><time>2021-3-16T18:27:47Z</time></trkpt>
<trkpt lat="46.549359" lon="7.384644"><ele></ele><time>2021-3-16T18:27:50Z</time></trkpt>
<trkpt lat="46.549512" lon="7.384686"><ele></ele><time>2021-3-16T18:27:53Z</time></trkpt>
<trkpt lat="46.549708" lon="7.384752"><ele></ele><time>2021-3-16T18:27:56Z</time></trkpt>
<trkpt lat="46.549874" lon="7.384818"><ele></ele><time>2021-3-16T18:27:59Z</time></trkpt>
<trkpt lat="46.55004" lon="7.38489"><ele></ele><time>2021-3-16T18:28:2Z</time></trkpt>
<trkpt lat="46.550224" lon="7.384972"><ele></ele><time>2021-3-16T18:28:5Z</time></trkpt>
<trkpt lat="46.550384" lon="7.385028"><ele></ele><time>2021-3-16T18:28:8Z</time></trkpt>
<trkpt lat="46.550521" lon="7.385055"><ele></ele><time>2021-3-16T18:28:11Z</time></trkpt>
<trkpt lat="46.55068" lon="7.385058"><ele></ele><time>2021-3-16T18:28:14Z</time></trkpt>
<trkpt lat="46.550811" lon="7.385044"><ele></ele><time>2021-3-16T18:28:17Z</time></trkpt>
<trkpt lat="46.550962" lon="7.385005"><ele></ele><time>2021-3-16T18:28:20Z</time></trkpt>
<trkpt lat="46.551099" lon="7.384944"><ele></ele><time>2021-3-16T18:28:23Z</time></trkpt>
<trkpt lat="46.551254" lon="7.384855"><ele></ele><time>2021-3-16T18:28:26Z</time></trkpt>
<trkpt lat="46.551443" lon="7.384733"><ele></ele><time>2021-3-16T18:28:29Z</time></trkpt>
<trkpt lat="46.551557" lon="7.384661"><ele></ele><time>2021-3-16T18:28:32Z</time></trkpt>
<trkpt lat="46.551698" lon="7.384573"><ele></ele><time>2021-3-16T18:28:35Z</time></trkpt>
<trkpt lat="46.551879" lon="7.384462"><ele></ele><time>2021-3-16T18:28:38Z</time></trkpt>
<trkpt lat="46.552081" lon="7.384312"><ele></ele><time>2021-3-16T18:28:41Z</time></trkpt>
<trkpt lat="46.552278" lon="7.384163"><ele></ele><time>2021-3-16T18:28:44Z</time></trkpt>
<trkpt lat="46.552385" lon="7.384088"><ele></ele><time>2021-3-16T18:28:47Z</time></trkpt>
<trkpt lat="46.552532" lon="7.384008"><ele></ele><time>2021-3-16T18:28:50Z</time></trkpt>
<trkpt lat="46.552669" lon="7.383952"><ele></ele><time>2021-3-16T18:28:53Z</time></trkpt>
<trkpt lat="46.552781" lon="7.383919"><ele></ele><time>2021-3-16T18:28:56Z</time></trkpt>
<trkpt lat="46.5529" lon="7.383902"><ele></ele><time>2021-3-16T18:28:59Z</time></trkpt>
<trkpt lat="46.553062" lon="7.383891"><ele></ele><time>2021-3-16T18:29:2Z</time></trkpt>
<trkpt lat="46.553211" lon="7.383863"><ele></ele><time>2021-3-16T18:29:5Z</time></trkpt>
<trkpt lat="46.553335" lon="7.38383"><ele></ele><time>2021-3-16T18:29:8Z</time></trkpt>
<trkpt lat="46.553495" lon="7.383775"><ele></ele><time>2021-3-16T18:29:11Z</time></trkpt>
<trkpt lat="46.553676" lon="7.383691"><ele></ele><time>2021-3-16T18:29:14Z</time></trkpt>
<trkpt lat="46.553905" lon="7.383575"><ele></ele><time>2021-3-16T18:29:17Z</time></trkpt>
<trkpt lat="46.554189" lon="7.383425"><ele></ele><time>2021-3-16T18:29:20Z</time></trkpt>
<trkpt lat="46.554391" lon="7.383328"><ele></ele><time>2021-3-16T18:29:23Z</time></trkpt>
<trkpt lat="46.55454" lon="7.383284"><ele></ele><time>2021-3-16T18:29:26Z</time></trkpt>
<trkpt lat="46.554668" lon="7.383264"><ele></ele><time>2021-3-16T18:29:29Z</time></trkpt>
<trkpt lat="46.554796" lon="7.383264"><ele></ele><time>2021-3-16T18:29:32Z</time></trkpt>
<trkpt lat="46.554954" lon="7.38327"><ele></ele><time>2021-3-16T18:29:35Z</time></trkpt>
<trkpt lat="46.555149" lon="7.383264"><ele></ele><time>2021-3-16T18:29:38Z</time></trkpt>
<trkpt lat="46.55511" lon="7.383217"><ele></ele><time>2021-3-16T18:29:41Z</time></trkpt>
<trkpt lat="46.555095" lon="7.383164"><ele></ele><time>2021-3-16T18:29:44Z</time></trkpt>
<trkpt lat="46.555099" lon="7.383087"><ele></ele><time>2021-3-16T18:29:47Z</time></trkpt>
<trkpt lat="46.555124" lon="7.383026"><ele></ele><time>2021-3-16T18:29:50Z</time></trkpt>
<trkpt lat="46.555171" lon="7.382974"><ele></ele><time>2021-3-16T18:29:53Z</time></trkpt>
<trkpt lat="46.555272" lon="7.382918"><ele></ele><time>2021-3-16T18:29:56Z</time></trkpt>
<trkpt lat="46.555349" lon="7.382879"><ele></ele><time>2021-3-16T18:29:59Z</time></trkpt>
<trkpt lat="46.555387" lon="7.382832"><ele></ele><time>2021-3-16T18:30:2Z</time></trkpt>
<trkpt lat="46.555404" lon="7.382766"><ele></ele><time>2021-3-16T18:30:5Z</time></trkpt>
<trkpt lat="46.555396" lon="7.382697"><ele></ele><time>2021-3-16T18:30:8Z</time></trkpt>
<trkpt lat="46.55537" lon="7.382647"><ele></ele><time>2021-3-16T18:30:11Z</time></trkpt>
<trkpt lat="46.555301" lon="7.382608"><ele></ele><time>2021-3-16T18:30:14Z</time></trkpt>
<trkpt lat="46.555198" lon="7.382571"><ele></ele><time>2021-3-16T18:30:17Z</time></trkpt>
<trkpt lat="46.555181" lon="7.382543"><ele></ele><time>2021-3-16T18:30:20Z</time></trkpt>
<trkpt lat="46.55515" lon="7.382511"><ele></ele><time>2021-3-16T18:30:23Z</time></trkpt>
<trkpt lat="46.555106" lon="7.382467"><ele></ele><time>2021-3-16T18:30:26Z</time></trkpt>
<trkpt lat="46.555071" lon="7.382414"><ele></ele><time>2021-3-16T18:30:29Z</time></trkpt>
<trkpt lat="46.555039" lon="7.382331"><ele></ele><time>2021-3-16T18:30:32Z</time></trkpt>
<trkpt lat="46.554986" lon="7.382181"><ele></ele><time>2021-3-16T18:30:35Z</time></trkpt>
<trkpt lat="46.554942" lon="7.38205"><ele></ele><time>2021-3-16T18:30:38Z</time></trkpt>
<trkpt lat="46.554909" lon="7.381949"><ele></ele><time>2021-3-16T18:30:41Z</time></trkpt>
<trkpt lat="46.554881" lon="7.381891"><ele></ele><time>2021-3-16T18:30:44Z</time></trkpt>
<trkpt lat="46.55489" lon="7.381818"><ele></ele><time>2021-3-16T18:30:47Z</time></trkpt>
<trkpt lat="46.554886" lon="7.381752"><ele></ele><time>2021-3-16T18:30:50Z</time></trkpt>
<trkpt lat="46.554884" lon="7.381723"><ele></ele><time>2021-3-16T18:30:53Z</time></trkpt>
<trkpt lat="46.554871" lon="7.38151"><ele></ele><time>2021-3-16T18:30:56Z</time></trkpt>
<trkpt lat="46.554869" lon="7.381491"><ele></ele><time>2021-3-16T18:30:59Z</time></trkpt>
<trkpt lat="46.554854" lon="7.381203"><ele></ele><time>2021-3-16T18:31:2Z</time></trkpt>
<trkpt lat="46.554836" lon="7.380816"><ele></ele><time>2021-3-16T18:31:5Z</time></trkpt>
<trkpt lat="46.554809" lon="7.380371"><ele></ele><time>2021-3-16T18:31:8Z</time></trkpt>
<trkpt lat="46.554784" lon="7.38"><ele></ele><time>2021-3-16T18:31:11Z</time></trkpt>
<trkpt lat="46.554764" lon="7.379674"><ele></ele><time>2021-3-16T18:31:14Z</time></trkpt>
<trkpt lat="46.554764" lon="7.379674"><ele></ele><time>2021-3-16T18:31:17Z</time></trkpt>
<trkpt lat="46.554759" lon="7.379608"><ele></ele><time>2021-3-16T18:31:20Z</time></trkpt>
<trkpt lat="46.554738" lon="7.379279"><ele></ele><time>2021-3-16T18:31:23Z</time></trkpt>
<trkpt lat="46.554719" lon="7.379099"><ele></ele><time>2021-3-16T18:31:26Z</time></trkpt>
<trkpt lat="46.554681" lon="7.37893"><ele></ele><time>2021-3-16T18:31:29Z</time></trkpt>
<trkpt lat="46.554625" lon="7.378739"><ele></ele><time>2021-3-16T18:31:32Z</time></trkpt>
<trkpt lat="46.55452" lon="7.378413"><ele></ele><time>2021-3-16T18:31:35Z</time></trkpt>
<trkpt lat="46.55444" lon="7.378134"><ele></ele><time>2021-3-16T18:31:38Z</time></trkpt>
<trkpt lat="46.554343" lon="7.377847"><ele></ele><time>2021-3-16T18:31:41Z</time></trkpt>
<trkpt lat="46.554287" lon="7.377678"><ele></ele><time>2021-3-16T18:31:44Z</time></trkpt>
<trkpt lat="46.554236" lon="7.377562"><ele></ele><time>2021-3-16T18:31:47Z</time></trkpt>
<trkpt lat="46.554136" lon="7.37741"><ele></ele><time>2021-3-16T18:31:50Z</time></trkpt>
<trkpt lat="46.554008" lon="7.377203"><ele></ele><time>2021-3-16T18:31:53Z</time></trkpt>
<trkpt lat="46.553875" lon="7.376987"><ele></ele><time>2021-3-16T18:31:56Z</time></trkpt>
<trkpt lat="46.553735" lon="7.376747"><ele></ele><time>2021-3-16T18:31:59Z</time></trkpt>
<trkpt lat="46.553651" lon="7.376589"><ele></ele><time>2021-3-16T18:32:2Z</time></trkpt>
<trkpt lat="46.55359" lon="7.376451"><ele></ele><time>2021-3-16T18:32:5Z</time></trkpt>
<trkpt lat="46.55356" lon="7.376338"><ele></ele><time>2021-3-16T18:32:8Z</time></trkpt>
<trkpt lat="46.553544" lon="7.376197"><ele></ele><time>2021-3-16T18:32:11Z</time></trkpt>
<trkpt lat="46.553535" lon="7.376108"><ele></ele><time>2021-3-16T18:32:14Z</time></trkpt>
<trkpt lat="46.553529" lon="7.375917"><ele></ele><time>2021-3-16T18:32:17Z</time></trkpt>
<trkpt lat="46.553519" lon="7.375732"><ele></ele><time>2021-3-16T18:32:20Z</time></trkpt>
<trkpt lat="46.553622" lon="7.37571"><ele></ele><time>2021-3-16T18:32:23Z</time></trkpt>
<trkpt lat="46.553691" lon="7.37571"><ele></ele><time>2021-3-16T18:32:26Z</time></trkpt>
<trkpt lat="46.553836" lon="7.375723"><ele></ele><time>2021-3-16T18:32:29Z</time></trkpt>
<trkpt lat="46.554015" lon="7.37574"><ele></ele><time>2021-3-16T18:32:32Z</time></trkpt>
<trkpt lat="46.554187" lon="7.375762"><ele></ele><time>2021-3-16T18:32:35Z</time></trkpt>
<trkpt lat="46.554311" lon="7.375753"><ele></ele><time>2021-3-16T18:32:38Z</time></trkpt>
<trkpt lat="46.554502" lon="7.375728"><ele></ele><time>2021-3-16T18:32:41Z</time></trkpt>
<trkpt lat="46.554658" lon="7.375725"><ele></ele><time>2021-3-16T18:32:44Z</time></trkpt>
<trkpt lat="46.5547" lon="7.375697"><ele></ele><time>2021-3-16T18:32:47Z</time></trkpt>
<trkpt lat="46.554717" lon="7.375648"><ele></ele><time>2021-3-16T18:32:50Z</time></trkpt>
<trkpt lat="46.554729" lon="7.375601"><ele></ele><time>2021-3-16T18:32:53Z</time></trkpt>
<trkpt lat="46.554755" lon="7.375555"><ele></ele><time>2021-3-16T18:32:56Z</time></trkpt>
<trkpt lat="46.554833" lon="7.375472"><ele></ele><time>2021-3-16T18:32:59Z</time></trkpt>
<trkpt lat="46.554842" lon="7.375463"><ele></ele><time>2021-3-16T18:33:2Z</time></trkpt>
<trkpt lat="46.554879" lon="7.375429"><ele></ele><time>2021-3-16T18:33:5Z</time></trkpt>
<trkpt lat="46.554921" lon="7.375418"><ele></ele><time>2021-3-16T18:33:8Z</time></trkpt>
<trkpt lat="46.555017" lon="7.375407"><ele></ele><time>2021-3-16T18:33:11Z</time></trkpt>
<trkpt lat="46.555186" lon="7.37539"><ele></ele><time>2021-3-16T18:33:14Z</time></trkpt>
<trkpt lat="46.555308" lon="7.375376"><ele></ele><time>2021-3-16T18:33:17Z</time></trkpt>
<trkpt lat="46.55539" lon="7.375366"><ele></ele><time>2021-3-16T18:33:20Z</time></trkpt>
<trkpt lat="46.555379" lon="7.375326"><ele></ele><time>2021-3-16T18:33:23Z</time></trkpt>
<trkpt lat="46.555318" lon="7.375141"><ele></ele><time>2021-3-16T18:33:26Z</time></trkpt>
<trkpt lat="46.555261" lon="7.374981"><ele></ele><time>2021-3-16T18:33:29Z</time></trkpt>
<trkpt lat="46.555209" lon="7.374856"><ele></ele><time>2021-3-16T18:33:32Z</time></trkpt>
<trkpt lat="46.555056" lon="7.374931"><ele></ele><time>2021-3-16T18:33:35Z</time></trkpt>
<trkpt lat="46.55491" lon="7.375"><ele></ele><time>2021-3-16T18:33:38Z</time></trkpt>
<trkpt lat="46.554789" lon="7.375053"><ele></ele><time>2021-3-16T18:33:41Z</time></trkpt>
<trkpt lat="46.554704" lon="7.375092"><ele></ele><time>2021-3-16T18:33:44Z</time></trkpt>
<trkpt lat="46.554687" lon="7.3751"><ele></ele><time>2021-3-16T18:33:47Z</time></trkpt>
<trkpt lat="46.554585" lon="7.375144"><ele></ele><time>2021-3-16T18:33:50Z</time></trkpt>
<trkpt lat="46.554522" lon="7.375156"><ele></ele><time>2021-3-16T18:33:53Z</time></trkpt>
<trkpt lat="46.554444" lon="7.375145"><ele></ele><time>2021-3-16T18:33:56Z</time></trkpt>
<trkpt lat="46.554293" lon="7.375101"><ele></ele><time>2021-3-16T18:33:59Z</time></trkpt>
<trkpt lat="46.554101" lon="7.375043"><ele></ele><time>2021-3-16T18:34:2Z</time></trkpt>
<trkpt lat="46.553929" lon="7.37499"><ele></ele><time>2021-3-16T18:34:5Z</time></trkpt>
<trkpt lat="46.55383" lon="7.37496"><ele></ele><time>2021-3-16T18:34:8Z</time></trkpt>
<trkpt lat="46.553778" lon="7.374921"><ele></ele><time>2021-3-16T18:34:11Z</time></trkpt>
<trkpt lat="46.553744" lon="7.374866"><ele></ele><time>2021-3-16T18:34:14Z</time></trkpt>
<trkpt lat="46.553723" lon="7.3748"><ele></ele><time>2021-3-16T18:34:17Z</time></trkpt>
<trkpt lat="46.553717" lon="7.3747"><ele></ele><time>2021-3-16T18:34:20Z</time></trkpt>
<trkpt lat="46.553726" lon="7.374568"><ele></ele><time>2021-3-16T18:34:23Z</time></trkpt>
<trkpt lat="46.553731" lon="7.374507"><ele></ele><time>2021-3-16T18:34:26Z</time></trkpt>
<trkpt lat="46.553739" lon="7.37442"><ele></ele><time>2021-3-16T18:34:29Z</time></trkpt>
</trkseg></trk></gpx>